Buoy 48507

sailwx.info

Track history (hours):
 
Tides and Currents Weather Stations Pressure Air Temp Water Temp Dewpoint Dewpoint Depression Visibility Wind Speed Wind Dir Waves Ship Positions

Drifting buoy 48507

Last reported at 2018-Feb-21 02:50 UTC. Time now 2018-Feb-21 03:44 UTC.
Position N 70°28' W 102°16'.

Barometer 1016.3 mb
Air temperature -40.0 ° C

Date/timePositionNaut miles runAvg speedWind from/ knotsBaromVisibWave heightAir tempDewpointWater temp
2018-Feb-21 02:50N 70°28' W 102°16'0 0.0 1016.3 -40.0
2018-Feb-21 02:40N 70°28' W 102°16'0 0.0 1016.3 -40.0
2018-Feb-21 02:10N 70°28' W 102°16'0 0.0 1016.6 -39.8
2018-Feb-21 02:00N 70°28' W 102°16'0 0.0 1016.6 -39.8
2018-Feb-21 01:50N 70°28' W 102°16'0 0.0 1016.6 -39.8
2018-Feb-21 01:40N 70°28' W 102°16'0 0.0 1016.8 -39.7
2018-Feb-21 01:10N 70°28' W 102°16'0 0.0 1017.4 -39.3
2018-Feb-21 01:00N 70°28' W 102°16'0 0.0 1017.6 -39.2
2018-Feb-21 00:50N 70°28' W 102°16'0 0.0 1017.6 -39.0
2018-Feb-21 00:30N 70°28' W 102°16'0 0.0 1017.7 -38.8
2018-Feb-21 00:20N 70°28' W 102°16'0 0.0 1017.6 -38.6
2018-Feb-21 00:10N 70°28' W 102°16'0 0.0 1017.7 -38.4
2018-Feb-21 00:00N 70°28' W 102°16'0 0.0 1017.8 -38.1
2018-Feb-20 23:50N 70°28' W 102°16'0 0.0 1018.1 -38.0
2018-Feb-20 23:20N 70°28' W 102°16'1 3.8 1018.1 -37.3
2018-Feb-20 23:10N 70°28' W 102°16'0 0.0
2018-Feb-20 22:50N 70°28' W 102°16'1 4.3 1018.4 -36.4
2018-Feb-20 22:40N 70°28' W 102°17'0 0.0 1018.5 -35.9
2018-Feb-20 22:30N 70°28' W 102°17'0 0.0 1018.4 -35.9
2018-Feb-20 22:20N 70°28' W 102°17'0 0.0 1018.4 -35.7
2018-Feb-20 22:10N 70°28' W 102°17'1 4.0 1018.4 -35.5
2018-Feb-20 21:50N 70°28' W 102°21'1 8.1 1018.7 -35.3
2018-Feb-20 21:40N 70°28' W 102°17'0 0.0 1018.7 -35.2
2018-Feb-20 21:30N 70°28' W 102°17'0 0.0 1018.8 -35.2
2018-Feb-20 21:20N 70°28' W 102°17'0 0.0 1018.9 -35.2
2018-Feb-20 21:10N 70°28' W 102°17'0 0.0 1018.9 -35.3
2018-Feb-20 21:00N 70°28' W 102°17'0 0.0 1018.9 -35.4
2018-Feb-20 20:50N 70°28' W 102°17'0 0.0 1018.9 -35.4
2018-Feb-20 20:40N 70°28' W 102°17'1 0.7 1019.1 -35.5
2018-Feb-20 19:50N 70°28' W 102°19'0 0.0 1019.4 -36.2
2018-Feb-20 19:40N 70°28' W 102°19'0 0.0 1019.4 -36.3
2018-Feb-20 19:30N 70°28' W 102°19'0 0.0 1019.2 -36.5
2018-Feb-20 19:20N 70°28' W 102°19'0 0.0 1019.4 -36.6
2018-Feb-20 19:10N 70°28' W 102°19'0 0.0 1019.4 -36.7
2018-Feb-20 19:00N 70°28' W 102°19'0 0.0 1019.4 -37.0
2018-Feb-20 18:50N 70°28' W 102°19'0 0.0 1019.4 -37.2
2018-Feb-20 18:10N 70°28' W 102°19'0 0.0 1019.4 -37.8
2018-Feb-20 18:00N 70°28' W 102°19'1 3.6 1019.5 -37.9
2018-Feb-20 17:50N 70°28' W 102°19'1 3.6 1019.5 -38.0
2018-Feb-20 17:40N 70°28' W 102°17'0 0.0 1019.5 -38.1
2018-Feb-20 17:30N 70°28' W 102°17'0 0.6 1019.6 -38.3
2018-Feb-20 16:50N 70°28' W 102°16'0 0.6 1019.8 -38.5
2018-Feb-20 16:30N 70°28' W 102°17'1 4.3 1019.8 -38.5
2018-Feb-20 16:20N 70°29' W 102°18'0 0.0 1019.9 -38.5
2018-Feb-20 16:10N 70°29' W 102°18'0 1.2 -38.5
2018-Feb-20 16:00N 70°29' W 102°19'0 0.0 1020.2 -38.4
2018-Feb-20 15:50N 70°29' W 102°19'0 0.0 1020.2 -38.4
2018-Feb-20 15:40N 70°29' W 102°19'0 0.0 1020.2 -38.3
2018-Feb-20 14:50N 70°29' W 102°19'0 0.0 1020.0 -38.3
2018-Feb-20 14:40N 70°29' W 102°19'2 9.4 1020.0 -38.2
2018-Feb-20 14:30N 70°28' W 102°16'1 3.6 -38.2
2018-Feb-20 14:20N 70°28' W 102°16'1 6.0 1020.3 -38.1
2018-Feb-20 14:10N 70°28' W 102°19'1 3.6 1020.6 -38.1
2018-Feb-20 14:00N 70°28' W 102°17'0 1.2 1020.7 -38.0
2018-Feb-20 13:50N 70°28' W 102°17'0 0.0 1020.7 -38.0
2018-Feb-20 13:10N 70°28' W 102°17'0 0.0 1020.9 -38.0
2018-Feb-20 13:00N 70°28' W 102°17'1 2.2 1020.9 -37.9
2018-Feb-20 12:40N 70°29' W 102°16'0 0.0 -38.0
2018-Feb-20 12:30N 70°29' W 102°16'1 3.8 1021.0 -38.0
2018-Feb-20 12:20N 70°28' W 102°16'0 0.0 1021.3 -38.0
2018-Feb-20 12:10N 70°28' W 102°16'1 0.9 1021.5 -38.0
2018-Feb-20 11:30N 70°28' W 102°17'1 3.6 1022.0 -37.6
2018-Feb-20 11:20N 70°28' W 102°16'1 1.2 1022.0 -37.5
2018-Feb-20 10:50N 70°28' W 102°17'0 0.0 1021.8 -37.1
2018-Feb-20 10:40N 70°28' W 102°17'0 0.0 1021.8 -37.1
2018-Feb-20 10:30N 70°28' W 102°17'0 0.0 1022.0
2018-Feb-20 09:50N 70°28' W 102°17'0 1.2 1022.0 -36.8
2018-Feb-20 09:40N 70°28' W 102°18'0 0.3 1021.8 -36.7
2018-Feb-20 09:00N 70°28' W 102°19'0 0.0 1022.0 -36.5
2018-Feb-20 08:50N 70°28' W 102°19'1 1.0 1022.1 -36.4
2018-Feb-20 08:00N 70°28' W 102°20'0 0.6 1022.0 -36.2
2018-Feb-20 07:20N 70°28' W 102°19'0 0.0 1021.8 -36.3
2018-Feb-20 07:10N 70°28' W 102°19'2 2.4 1022.0 -36.3
2018-Feb-20 06:30N 70°28' W 102°14'1 3.6 1022.1 -36.4
2018-Feb-20 06:20N 70°28' W 102°16'0 0.0 1022.0
2018-Feb-20 05:50N 70°28' W 102°16'0 0.0 1022.0 -36.9
2018-Feb-20 05:40N 70°28' W 102°16'0 0.0 1022.1 -37.1
2018-Feb-20 05:30N 70°28' W 102°16'1 0.9 1022.2 -37.2
2018-Feb-20 04:50N 70°28' W 102°17'0 0.0 1022.6 -37.1
2018-Feb-20 04:40N 70°28' W 102°17'0 0.4 1022.8 -37.0
2018-Feb-20 04:10N 70°28' W 102°16'1 3.6 1023.1 -36.7
2018-Feb-20 04:00N 70°28' W 102°14'1 5.1 1023.2 -36.6
2018-Feb-20 03:50N 70°29' W 102°16'1 8.1 1023.1 -36.5
2018-Feb-20 03:40N 70°28' W 102°14'1 2.7 1023.1 -36.5
2018-Feb-20 03:10N 70°29' W 102°16'0 0.0 1023.1 -37.0
2018-Feb-20 03:00N 70°29' W 102°16'0 0.0 1023.1 -37.2
2018-Feb-20 02:30N 70°29' W 102°16'0 0.0 1023.2 -37.1
2018-Feb-20 02:20N 70°29' W 102°16'0 0.0 1023.3 -37.1
2018-Feb-20 02:10N 70°29' W 102°16'2 9.4 1023.3 -37.1
2018-Feb-20 02:00N 70°28' W 102°13'0 0.0 1023.3 -37.0
2018-Feb-20 01:30N 70°28' W 102°13'0 0.0 1023.3 -36.7
2018-Feb-20 01:20N 70°28' W 102°13'0 0.0 1023.3 -36.7
2018-Feb-20 01:10N 70°28' W 102°13'1 3.8 1023.5 -36.8
2018-Feb-20 01:00N 70°28' W 102°14'212.6 1023.3 -36.9
2018-Feb-20 00:50N 70°28' W 102°20'1 7.0 1023.3 -37.0
2018-Feb-20 00:40N 70°28' W 102°17'0 0.0 1023.3 -37.3
2018-Feb-20 00:30N 70°28' W 102°17'0 2.4 1023.5 -37.4
2018-Feb-20 00:20N 70°28' W 102°18'0 0.0 1023.6 -37.6
2018-Feb-19 23:50N 70°28' W 102°18'0 0.0 1023.7 -37.9
2018-Feb-19 23:40N 70°28' W 102°18'1 2.2 1023.7 -37.8
2018-Feb-19 23:20N 70°28' W 102°19'0 0.0 1023.9 -37.5
2018-Feb-19 23:10N 70°28' W 102°19'0 2.4 1023.9 -37.3
2018-Feb-19 23:00N 70°28' W 102°20'0 0.0 1023.9 -36.9
2018-Feb-19 22:50N 70°28' W 102°20'0 0.0 1023.9 -36.5
2018-Feb-19 22:40N 70°28' W 102°20'0 0.0 1023.9 -36.0
2018-Feb-19 22:00N 70°28' W 102°20'0 0.0 1023.7 -35.1
2018-Feb-19 21:40N 70°28' W 102°20'0 0.0 1023.7 -35.2
2018-Feb-19 21:30N 70°28' W 102°20'0 0.0 1023.7 -35.3
2018-Feb-19 21:20N 70°28' W 102°20'0 0.0 1023.7 -35.5
2018-Feb-19 21:10N 70°28' W 102°20'0 0.0 1023.7 -35.7
2018-Feb-19 21:00N 70°28' W 102°20'0 0.0 1023.7 -35.9
2018-Feb-19 20:00N 70°28' W 102°20'0 0.0 1023.5 -37.5
2018-Feb-19 19:50N 70°28' W 102°20'0 0.0 1023.5 -37.9
2018-Feb-19 19:40N 70°28' W 102°20'0 0.0 1023.5 -38.4
2018-Feb-19 19:30N 70°28' W 102°20'0 0.0 1023.6 -38.8
2018-Feb-19 19:20N 70°28' W 102°20'0 0.0 1023.6 -39.1
2018-Feb-19 18:50N 70°28' W 102°20'0 0.0 1023.7 -40.2
2018-Feb-19 18:20N 70°28' W 102°20'0 0.0 1023.6 -41.2
2018-Feb-19 18:10N 70°28' W 102°20'0 0.0 1023.6 -41.6
2018-Feb-19 18:00N 70°28' W 102°20'0 0.0 1023.7 -41.8
2018-Feb-19 17:50N 70°28' W 102°20'0 0.0 1023.6 -42.1
2018-Feb-19 17:40N 70°28' W 102°20'0 0.0 1023.7 -42.4
2018-Feb-19 16:40N 70°28' W 102°20'212.6 1023.6 -43.1
2018-Feb-19 16:30N 70°27' W 102°14'1 7.3 1023.6
2018-Feb-19 16:20N 70°28' W 102°15'211.1 1023.5 -43.3
2018-Feb-19 16:10N 70°27' W 102°19'0 0.0 1023.5 -43.4
2018-Feb-19 16:00N 70°27' W 102°19'0 0.0 1023.5 -43.6
2018-Feb-19 15:00N 70°27' W 102°19'0 0.0 1023.5 -44.4
2018-Feb-19 14:50N 70°27' W 102°19'1 3.8 1023.5 -44.6
2018-Feb-19 14:40N 70°28' W 102°19'0 0.0 1023.5 -44.7
2018-Feb-19 14:30N 70°28' W 102°19'1 3.6 1023.5 -44.8
2018-Feb-19 14:20N 70°28' W 102°19'1 1.4 1023.5 -44.9
2018-Feb-19 13:50N 70°28' W 102°20'1 1.4 1023.5 -45.0
2018-Feb-19 13:20N 70°28' W 102°19'0 0.0 1023.5 -45.4
2018-Feb-19 13:10N 70°28' W 102°19'0 1.2 1023.5 -45.5
2018-Feb-19 12:50N 70°28' W 102°17'214.9 1023.5 -46.0
2018-Feb-19 12:40N 70°29' W 102°10'0 0.0 1023.5 -46.1
2018-Feb-19 11:40N 70°29' W 102°10'0 0.0 1023.1 -46.9
2018-Feb-19 11:30N 70°29' W 102°10'3 8.0 1022.9 -46.9
2018-Feb-19 11:10N 70°28' W 102°18'0 0.0 1023.1 -46.5
2018-Feb-19 11:00N 70°28' W 102°18'0 0.0 1023.1 -46.4
2018-Feb-19 10:00N 70°28' W 102°18'0 0.0 1022.6 -46.4
2018-Feb-19 09:50N 70°28' W 102°18'0 0.0 1022.6 -46.3
2018-Feb-19 09:30N 70°28' W 102°18'0 0.0 1022.6 -46.3
2018-Feb-19 09:20N 70°28' W 102°18'0 0.0 1022.6 -46.3
2018-Feb-19 08:20N 70°28' W 102°18'0 0.0 1022.8 -46.0
2018-Feb-19 08:10N 70°28' W 102°18'0 0.0 1022.8 -46.0
2018-Feb-19 07:50N 70°28' W 102°18'0 0.0 1022.6 -46.1
2018-Feb-19 07:40N 70°28' W 102°18'0 0.0 1022.6 -46.2
2018-Feb-19 06:50N 70°28' W 102°18'0 0.0 1022.1 -46.0
2018-Feb-19 06:10N 70°28' W 102°18'0 0.0 1021.8 -45.7
2018-Feb-19 05:40N 70°28' W 102°18'0 0.0 1021.4 -45.6
2018-Feb-19 05:10N 70°28' W 102°18'0 0.0 1021.1 -45.2
2018-Feb-19 05:00N 70°28' W 102°18'0 0.0 1021.3 -45.1
2018-Feb-19 04:40N 70°28' W 102°18'0 0.0 1021.0 -44.8
2018-Feb-19 04:30N 70°28' W 102°18'0 0.0 1021.0 -44.7
2018-Feb-19 04:20N 70°28' W 102°18'0 0.0 1020.9 -44.7
2018-Feb-19 04:10N 70°28' W 102°18'0 0.0 1020.9 -44.4
2018-Feb-19 04:00N 70°28' W 102°18'0 0.0 1020.9 -44.2
2018-Feb-19 03:30N 70°28' W 102°18'0 0.0 1020.3 -43.9
2018-Feb-19 03:20N 70°28' W 102°18'0 0.0 1020.2 -43.8
2018-Feb-19 03:00N 70°28' W 102°18'0 0.0 1020.3 -43.6
2018-Feb-19 02:50N 70°28' W 102°18'0 0.0 1020.2 -43.6
2018-Feb-19 02:40N 70°28' W 102°18'0 0.0 1020.0 -43.5
2018-Feb-19 02:30N 70°28' W 102°18'0 0.0 1020.3 -43.5
2018-Feb-19 02:20N 70°28' W 102°18'0 0.0 1020.2 -43.5
2018-Feb-19 01:50N 70°28' W 102°18'0 0.0 1020.3 -42.9
2018-Feb-19 01:40N 70°28' W 102°18'0 0.0 1020.6 -42.7
2018-Feb-19 01:20N 70°28' W 102°18'0 0.0 1020.2 -42.1
2018-Feb-19 01:10N 70°28' W 102°18'0 0.0 1020.0 -41.8
2018-Feb-19 01:00N 70°28' W 102°18'0 0.0 1020.0 -41.7
2018-Feb-19 00:50N 70°28' W 102°18'0 0.0 1019.9 -41.5
2018-Feb-19 00:40N 70°28' W 102°18'0 0.0 1019.9 -41.3
2018-Feb-19 00:30N 70°28' W 102°18'0 0.0 1019.6 -41.0
2018-Feb-19 00:10N 70°28' W 102°18'0 0.0 1019.6 -40.5
2018-Feb-19 00:00N 70°28' W 102°18'1 3.5 1019.6 -40.3
2018-Feb-18 23:40N 70°28' W 102°21'0 0.0 1019.4 -39.8
2018-Feb-18 23:30N 70°28' W 102°21'0 0.0 1019.4 -39.4
2018-Feb-18 23:20N 70°28' W 102°21'0 0.0 1019.4 -38.9
2018-Feb-18 23:10N 70°28' W 102°21'0 0.0 1019.5 -38.4
2018-Feb-18 23:00N 70°28' W 102°21'0 0.0 1019.2 -37.9
2018-Feb-18 22:20N 70°28' W 102°21'2 7.0 1018.8 -36.1
2018-Feb-18 22:00N 70°29' W 102°15'318.8 1018.4 -35.7
2018-Feb-18 21:50N 70°26' W 102°21'0 0.0 1018.4 -35.7
2018-Feb-18 21:40N 70°26' W 102°21'2 7.2 1018.1 -35.7
2018-Feb-18 21:20N 70°29' W 102°21'214.4 1018.0 -35.8
2018-Feb-18 21:10N 70°26' W 102°21'410.8 1017.8 -35.9
2018-Feb-18 20:50N 70°30' W 102°22'1 7.3 1017.7 -35.9
2018-Feb-18 20:40N 70°29' W 102°21'0 0.0 1017.6 -35.9
2018-Feb-18 20:10N 70°29' W 102°21'211.4 1017.0 -36.0
2018-Feb-18 20:00N 70°28' W 102°16'0 1.2 1017.4 -36.1
2018-Feb-18 19:50N 70°28' W 102°16'0 0.0 1017.4 -36.2
2018-Feb-18 19:40N 70°28' W 102°16'1 0.5 1017.4 -36.3
2018-Feb-18 18:30N 70°28' W 102°18'0 0.0 1016.9 -36.6
2018-Feb-18 18:20N 70°28' W 102°18'0 0.0 1016.9 -36.7
2018-Feb-18 18:00N 70°28' W 102°18'0 0.0 1016.6 -36.6
2018-Feb-18 17:50N 70°28' W 102°18'2 2.2 1016.3 -36.6
2018-Feb-18 16:50N 70°29' W 102°23'0 0.0 1016.2 -36.1
2018-Feb-18 16:40N 70°29' W 102°23'0 0.0 1016.2 -35.9
2018-Feb-18 16:30N 70°29' W 102°23'0 0.0 1016.2 -35.9
2018-Feb-18 16:20N 70°29' W 102°23'0 0.0 1016.1 -35.8
2018-Feb-18 16:10N 70°29' W 102°23'3 8.5 1016.2 -35.8
2018-Feb-18 15:50N 70°28' W 102°17'3 4.3 1016.1 -35.8
2018-Feb-18 15:10N 70°29' W 102°23'0 0.0 1016.2 -35.9
2018-Feb-18 15:00N 70°29' W 102°23'0 0.0 1016.3 -35.9
2018-Feb-18 14:50N 70°29' W 102°23'0 0.0 1016.5 -35.9
2018-Feb-18 14:40N 70°29' W 102°23'0 0.0 1016.3 -35.9
2018-Feb-18 14:30N 70°29' W 102°23'1 0.9 1016.3 -35.9
2018-Feb-18 13:40N 70°29' W 102°22'0 0.0 -36.0
2018-Feb-18 13:30N 70°29' W 102°22'0 0.0 1016.5 -36.0
2018-Feb-18 13:20N 70°29' W 102°22'0 1.2 1016.5 -36.0
2018-Feb-18 13:10N 70°29' W 102°22'214.8 1016.5 -36.0
2018-Feb-18 13:00N 70°26' W 102°20'0 0.0 1016.5 -36.1
2018-Feb-18 12:50N 70°26' W 102°20'3 2.9 1016.5 -36.1
2018-Feb-18 11:50N 70°26' W 102°28'0 0.0 1016.9 -36.4
2018-Feb-18 11:40N 70°26' W 102°28'0 0.0 1017.0 -36.4
2018-Feb-18 11:30N 70°26' W 102°28'0 0.0 1016.9 -36.4
2018-Feb-18 11:10N 70°26' W 102°28'7 6.5 1017.0 -36.5
2018-Feb-18 10:10N 70°29' W 102°11'0 0.0 1017.2 -37.0
2018-Feb-18 10:00N 70°29' W 102°11'0 0.0 1017.2 -37.1
2018-Feb-18 09:50N 70°29' W 102°11'0 0.0 1017.4 -37.2
2018-Feb-18 08:30N 70°29' W 102°11'0 0.0 1018.0 -38.7
2018-Feb-18 08:20N 70°29' W 102°11'0 0.0 1018.0 -38.8
2018-Feb-18 07:10N 70°29' W 102°11'0 0.0 1018.0 -39.5
2018-Feb-18 06:50N 70°29' W 102°11'0 0.0 1018.1 -39.5
2018-Feb-18 06:40N 70°29' W 102°11'0 0.0 1018.1 -39.5
2018-Feb-18 06:00N 70°29' W 102°11'0 0.0 1018.5 -39.9
2018-Feb-18 05:30N 70°29' W 102°11'0 0.0 1018.5 -40.2
2018-Feb-18 05:10N 70°29' W 102°11'0 0.0 1018.8 -40.4
2018-Feb-18 05:00N 70°29' W 102°11'0 0.0 1018.8 -40.5
2018-Feb-18 04:50N 70°29' W 102°11'0 0.0 1018.8 -40.5
2018-Feb-18 04:40N 70°29' W 102°11'0 0.0 1018.9 -40.7
2018-Feb-18 04:20N 70°29' W 102°11'0 0.0 1018.9 -41.0
2018-Feb-18 04:10N 70°29' W 102°11'2 5.1 1019.1 -41.2
2018-Feb-18 03:50N 70°28' W 102°14'0 0.0 1019.1 -41.6
2018-Feb-18 03:40N 70°28' W 102°14'0 0.0 1019.2 -41.8
2018-Feb-18 03:30N 70°28' W 102°14'0 0.0 1019.1 -42.0
2018-Feb-18 03:20N 70°28' W 102°14'0 0.0 1019.1 -42.2
2018-Feb-18 03:10N 70°28' W 102°14'0 0.0 1019.1 -42.4
2018-Feb-18 03:00N 70°28' W 102°14'0 0.0 1019.2 -42.5
2018-Feb-18 02:50N 70°28' W 102°14'1 3.8 1019.2 -42.7
2018-Feb-18 02:40N 70°28' W 102°15'211.4 1019.2 -42.8
2018-Feb-18 02:30N 70°26' W 102°13'0 0.0 1019.4 -42.9
2018-Feb-18 02:10N 70°26' W 102°13'0 0.0 1019.1 -43.3
2018-Feb-18 02:00N 70°26' W 102°13'0 0.0 1019.2
2018-Feb-18 01:50N 70°26' W 102°13'0 0.0 1019.2 -43.8
2018-Feb-18 01:40N 70°26' W 102°13'0 0.0 1019.6 -43.9
2018-Feb-18 01:30N 70°26' W 102°13'0 0.0 1019.9 -44.0
2018-Feb-18 01:20N 70°26' W 102°13'0 0.0 1019.8 -44.0
2018-Feb-18 01:10N 70°26' W 102°13'0 0.0 1019.6 -44.1
2018-Feb-18 01:00N 70°26' W 102°13'0 0.0 1019.6 -44.1
2018-Feb-18 00:50N 70°26' W 102°13'0 0.0 1019.8 -44.2
2018-Feb-18 00:30N 70°26' W 102°13'0 0.0 1019.5 -44.0
2018-Feb-18 00:20N 70°26' W 102°13'0 0.0 1019.5 -43.9
2018-Feb-18 00:10N 70°26' W 102°13'0 0.0 1019.6 -43.7
2018-Feb-18 00:00N 70°26' W 102°13'0 0.0 1019.6 -43.4
2018-Feb-17 23:50N 70°26' W 102°13'316.7 1019.6 -43.1
2018-Feb-17 23:40N 70°29' W 102°17'0 0.0 1019.8 -42.8
2018-Feb-17 23:10N 70°29' W 102°17'0 0.0 1019.4 -41.4
2018-Feb-17 22:50N 70°29' W 102°17'0 0.0 1019.2 -40.3
2018-Feb-17 22:40N 70°29' W 102°17'211.4 1019.1 -40.0
2018-Feb-17 22:30N 70°27' W 102°19'0 0.0 1019.1 -39.6
2018-Feb-17 22:20N 70°27' W 102°19'0 0.0 1018.9 -39.4
2018-Feb-17 22:10N 70°27' W 102°19'0 0.0 1018.9 -39.3
2018-Feb-17 22:00N 70°27' W 102°19'0 0.0 1018.9 -39.3
2018-Feb-17 21:30N 70°27' W 102°19'0 0.0 1019.2 -39.4
2018-Feb-17 20:30N 70°27' W 102°19'0 0.0 1018.7 -41.0
2018-Feb-17 20:20N 70°27' W 102°19'0 0.0 1018.3 -41.1
2018-Feb-17 20:00N 70°27' W 102°19'0 0.0 1018.4 -41.8
2018-Feb-17 19:50N 70°27' W 102°19'0 0.0 1018.3 -42.0
2018-Feb-17 18:50N 70°27' W 102°19'0 0.0 1017.7 -44.1
2018-Feb-17 18:40N 70°27' W 102°19'0 0.0 1017.7 -44.4
2018-Feb-17 18:30N 70°27' W 102°19'0 0.0 1017.6 -44.7
2018-Feb-17 18:20N 70°27' W 102°19'0 0.0 1017.4 -45.0
2018-Feb-17 18:10N 70°27' W 102°19'0 0.0 1017.4 -45.3
2018-Feb-17 18:00N 70°27' W 102°19'0 0.0 1017.3 -45.5
2018-Feb-17 17:50N 70°27' W 102°19'1 1.1 1017.3 -45.8
2018-Feb-17 17:10N 70°28' W 102°18'1 7.2 1017.2 -46.8
2018-Feb-17 17:00N 70°29' W 102°18'0 0.0 1017.2 -46.9
2018-Feb-17 16:40N 70°29' W 102°18'0 0.0 1017.0 -47.3
2018-Feb-17 16:30N 70°29' W 102°18'0 0.0 1017.0 -47.5
2018-Feb-17 16:00N 70°29' W 102°18'0 0.0 1016.6 -47.7
2018-Feb-17 15:30N 70°29' W 102°18'0 0.0 1016.3 -47.7
2018-Feb-17 15:20N 70°29' W 102°18'0 0.0 1016.2 -47.6
2018-Feb-17 14:50N 70°29' W 102°18'0 0.0 1016.3 -47.6
2018-Feb-17 14:40N 70°29' W 102°18'1 1.2 1016.2 -47.6
2018-Feb-17 13:50N 70°29' W 102°16'0 0.0 1015.8 -47.4
2018-Feb-17 13:40N 70°29' W 102°16'0 0.0 1015.7 -47.4
2018-Feb-17 13:10N 70°29' W 102°16'0 0.0 1015.4 -47.4
2018-Feb-17 13:00N 70°29' W 102°16'0 0.0 1015.2 -47.4
2018-Feb-17 12:50N 70°29' W 102°16'3 4.3 1015.4 -47.5
2018-Feb-17 12:10N 70°30' W 102°07'0 0.0 1015.1 -47.5
2018-Feb-17 12:00N 70°30' W 102°07'0 0.0 1015.0 -47.5
2018-Feb-17 11:50N 70°30' W 102°07'0 0.0 1015.0 -47.5
2018-Feb-17 11:30N 70°30' W 102°07'0 0.0 1014.7 -47.3
2018-Feb-17 11:20N 70°30' W 102°07'5 5.8 1014.7 -47.3
2018-Feb-17 10:30N 70°27' W 102°19'0 0.0 1014.6 -47.0
2018-Feb-17 10:20N 70°27' W 102°19'0 0.0 1014.6 -46.9
2018-Feb-17 10:10N 70°27' W 102°19'0 0.0 1014.6 -46.9
2018-Feb-17 08:50N 70°27' W 102°19'0 0.0 1013.9 -46.1
2018-Feb-17 08:40N 70°27' W 102°19'0 0.0 1013.6 -45.9
2018-Feb-17 07:30N 70°27' W 102°19'0 0.0 1012.9 -44.8
2018-Feb-17 07:20N 70°27' W 102°19'0 0.0 1012.9 -44.8
2018-Feb-17 07:10N 70°27' W 102°19'0 0.0 1012.9 -44.6
2018-Feb-17 06:10N 70°27' W 102°19'0 0.0 1012.6 -43.4
2018-Feb-17 05:50N 70°27' W 102°19'0 0.0 1012.6 -42.9
2018-Feb-17 05:40N 70°27' W 102°19'0 0.0 1012.5 -42.6
2018-Feb-17 05:30N 70°27' W 102°19'0 0.0 1012.5 -42.4
2018-Feb-17 05:10N 70°27' W 102°19'211.8 1012.4 -42.0
2018-Feb-17 05:00N 70°29' W 102°21'0 0.0 1012.2 -41.8
2018-Feb-17 04:30N 70°29' W 102°21'1 3.0 1011.8 -41.1
2018-Feb-17 04:10N 70°28' W 102°19'1 4.3 1011.7 -40.7
2018-Feb-17 04:00N 70°28' W 102°17'0 0.0 1011.7 -40.5
2018-Feb-17 03:50N 70°28' W 102°17'1 2.5 1011.7 -40.3
2018-Feb-17 03:30N 70°28' W 102°16'0 0.0 1011.6 -40.3
2018-Feb-17 03:20N 70°28' W 102°16'0 0.8 1011.4 -40.3
2018-Feb-17 02:50N 70°28' W 102°17'1 3.6 1011.1 -40.8
2018-Feb-17 02:40N 70°28' W 102°19'0 0.0 1011.1 -41.0
2018-Feb-17 02:30N 70°28' W 102°19'0 0.0 1011.1 -41.1
2018-Feb-17 02:20N 70°28' W 102°19'0 0.0 1010.9 -41.3
2018-Feb-17 02:10N 70°28' W 102°19'2 7.2 1010.9 -41.6
2018-Feb-17 01:50N 70°26' W 102°14'0 0.0 1010.6 -41.9
2018-Feb-17 01:40N 70°26' W 102°14'0 0.0 1010.6 -42.1
2018-Feb-17 01:10N 70°26' W 102°14'0 0.0 1010.3 -42.5
2018-Feb-17 01:00N 70°26' W 102°14'0 0.0 1010.3 -42.7
2018-Feb-17 00:50N 70°26' W 102°14'0 0.0 1010.2 -42.9
2018-Feb-17 00:40N 70°26' W 102°14'0 0.0 1010.3 -42.9
2018-Feb-17 00:30N 70°26' W 102°14'0 0.0 1010.0 -42.9
2018-Feb-17 00:10N 70°26' W 102°14'0 0.0 1009.9 -42.5
2018-Feb-17 00:00N 70°26' W 102°14'0 0.0 1009.8 -42.4
2018-Feb-16 23:50N 70°26' W 102°14'0 0.0 1009.6 -42.2
2018-Feb-16 23:30N 70°26' W 102°14'0 0.0 1009.5 -41.8
2018-Feb-16 23:20N 70°26' W 102°14'0 0.0 1009.4 -41.6
2018-Feb-16 23:10N 70°26' W 102°14'213.7 1009.4 -41.3
2018-Feb-16 23:00N 70°28' W 102°18'0 0.0 1009.4 -41.0
2018-Feb-16 22:50N 70°28' W 102°18'0 0.0 1009.4 -40.8
2018-Feb-16 22:30N 70°28' W 102°18'0 1.2 1009.1 -40.5
2018-Feb-16 22:20N 70°28' W 102°17'211.1 1009.0 -40.4
2018-Feb-16 22:10N 70°27' W 102°22'0 0.0 1009.0 -40.4
2018-Feb-16 21:50N 70°27' W 102°22'426.2 1008.8 -40.2
2018-Feb-16 21:40N 70°31' W 102°25'0 0.0 1008.7 -39.9
2018-Feb-16 21:20N 70°31' W 102°25'0 0.0
2018-Feb-16 21:10N 70°31' W 102°25'0 0.0 1008.0 -39.6
2018-Feb-16 20:50N 70°31' W 102°25'424.2 1007.7 -39.7
2018-Feb-16 20:40N 70°28' W 102°20'0 0.0 1007.6 -39.9
2018-Feb-16 20:30N 70°28' W 102°20'0 0.0 1007.4 -40.0
2018-Feb-16 20:10N 70°28' W 102°20'0 0.0 1007.6 -40.2
2018-Feb-16 20:00N 70°28' W 102°20'424.2 1007.4 -40.2
2018-Feb-16 19:50N 70°31' W 102°25'4 6.0 1007.3 -40.3
2018-Feb-16 19:10N 70°28' W 102°20'0 0.0 1006.9 -40.5
2018-Feb-16 19:00N 70°28' W 102°20'1 3.8 1006.8 -40.5
2018-Feb-16 18:50N 70°28' W 102°19'0 0.0 1006.6 -40.6
2018-Feb-16 18:30N 70°28' W 102°19'0 0.0 1006.5 -40.7
2018-Feb-16 18:20N 70°28' W 102°19'2 2.4 1006.4 -40.7
2018-Feb-16 17:30N 70°27' W 102°14'2 9.6 1006.1 -40.5
2018-Feb-16 17:20N 70°27' W 102°19'1 5.1 1005.8 -40.6
2018-Feb-16 17:10N 70°28' W 102°17'0 0.0 1005.7 -40.7
2018-Feb-16 16:50N 70°28' W 102°17'211.4 1005.5 -41.0
2018-Feb-16 16:40N 70°28' W 102°23'0 0.0 1005.4 -41.2
2018-Feb-16 16:00N 70°28' W 102°23'529.1 1004.7 -42.1
2018-Feb-16 15:50N 70°29' W 102°08'0 0.0 1004.6 -42.2
2018-Feb-16 15:40N 70°29' W 102°08'0 0.0 1004.7 -42.2
2018-Feb-16 15:30N 70°29' W 102°08'0 0.0 1004.7 -42.2
2018-Feb-16 15:10N 70°29' W 102°08'0 0.0 1004.6 -42.1
2018-Feb-16 15:00N 70°29' W 102°08'0 0.0 1004.4 -42.0
2018-Feb-16 14:50N 70°29' W 102°08'0 0.0 1004.2 -41.9
2018-Feb-16 14:20N 70°29' W 102°08'0 0.0 1003.5 -41.4
2018-Feb-16 14:10N 70°29' W 102°08'212.6 1003.6 -41.1
2018-Feb-16 14:00N 70°28' W 102°14'0 0.0 1003.6 -41.0
2018-Feb-16 13:50N 70°28' W 102°14'1 1.7 1003.5 -40.7
2018-Feb-16 13:20N 70°29' W 102°16'2 3.6 1003.2 -39.9
2018-Feb-16 12:40N 70°27' W 102°21'0 0.0 1002.9 -39.5
2018-Feb-16 12:30N 70°27' W 102°21'0 0.0 1002.9 -39.5
2018-Feb-16 12:20N 70°27' W 102°21'0 0.0 1002.8 -39.5
2018-Feb-16 12:10N 70°27' W 102°21'0 0.0 1002.7 -39.6
2018-Feb-16 11:40N 70°27' W 102°21'0 0.0 1002.4 -40.0
2018-Feb-16 11:10N 70°27' W 102°21'210.2 1002.1 -40.4
2018-Feb-16 11:00N 70°28' W 102°17'310.3 1002.1 -40.6
2018-Feb-16 10:40N 70°29' W 102°27'0 0.0 1001.8 -40.9
2018-Feb-16 10:30N 70°29' W 102°27'0 0.0 1001.8 -41.0
2018-Feb-16 09:30N 70°29' W 102°27'0 0.0 -42.0
2018-Feb-16 09:20N 70°29' W 102°27'0 0.0 1001.0 -42.1
2018-Feb-16 08:50N 70°29' W 102°27'0 0.0 1000.7 -42.0
2018-Feb-16 08:00N 70°29' W 102°27'0 0.0 1000.1 -41.6
2018-Feb-16 07:50N 70°29' W 102°27'0 0.0 1000.1 -41.4
2018-Feb-16 07:40N 70°29' W 102°27'0 0.0 1000.2 -41.3
2018-Feb-16 07:10N 70°29' W 102°27'0 0.0 999.8 -41.0
2018-Feb-16 07:00N 70°29' W 102°27'0 0.0 999.6
2018-Feb-16 06:10N 70°29' W 102°27'0 0.0 999.0 -40.3
2018-Feb-16 06:00N 70°29' W 102°27'0 0.0 998.8 -40.2
2018-Feb-16 05:30N 70°29' W 102°27'0 0.0 998.7 -39.8
2018-Feb-16 04:40N 70°29' W 102°27'0 0.0 998.6 -39.2
2018-Feb-16 04:30N 70°29' W 102°27'0 0.0 998.7 -39.0
2018-Feb-16 04:20N 70°29' W 102°27'0 0.0 998.6 -38.8
2018-Feb-16 03:50N 70°29' W 102°27'318.8 998.1 -38.2
2018-Feb-16 03:40N 70°27' W 102°21'0 0.0 998.0 -38.0
2018-Feb-16 03:00N 70°27' W 102°21'211.1 998.0 -36.7
2018-Feb-16 02:50N 70°28' W 102°17'211.1 997.7 -36.5
2018-Feb-16 02:40N 70°27' W 102°21'1 2.7 997.7 -36.2
2018-Feb-16 02:10N 70°28' W 102°19'1 3.6 998.0 -35.4
2018-Feb-16 02:00N 70°28' W 102°17'0 0.0 998.0 -35.3
2018-Feb-16 01:50N 70°28' W 102°17'0 0.0 997.9 -35.2
2018-Feb-16 01:20N 70°28' W 102°17'0 1.2 998.0 -35.3
2018-Feb-16 01:10N 70°28' W 102°18'0 0.0 998.0 -35.4
2018-Feb-16 01:00N 70°28' W 102°18'0 0.0 998.1 -35.4
2018-Feb-16 00:30N 70°28' W 102°18'0 0.0 998.3 -35.2
2018-Feb-16 00:20N 70°28' W 102°18'0 0.0 998.3 -35.1
2018-Feb-16 00:10N 70°28' W 102°18'0 0.4 998.3 -35.1
2018-Feb-15 23:40N 70°28' W 102°19'1 3.6 998.6 -34.9
2018-Feb-15 23:30N 70°28' W 102°19'1 3.8 998.6 -34.9
2018-Feb-15 23:20N 70°28' W 102°19'0 0.8 998.6 -35.0
2018-Feb-15 22:50N 70°28' W 102°20'1 7.2 998.8 -34.9
2018-Feb-15 22:40N 70°28' W 102°17'0 0.0 999.0 -34.8
2018-Feb-15 22:30N 70°28' W 102°17'1 7.2 998.8 -34.8
2018-Feb-15 22:20N 70°28' W 102°20'0 0.0 999.0 -34.7
2018-Feb-15 22:00N 70°28' W 102°20'0 0.0 999.0 -34.7
2018-Feb-15 21:50N 70°28' W 102°20'211.4 999.0 -34.7
2018-Feb-15 21:40N 70°26' W 102°19'1 2.5 999.0 -34.7
2018-Feb-15 21:10N 70°28' W 102°20'1 3.8 999.4 -34.7
2018-Feb-15 21:00N 70°28' W 102°19'0 0.0 -34.5
2018-Feb-15 20:50N 70°28' W 102°19'0 0.0 999.2 -34.5
2018-Feb-15 20:40N 70°28' W 102°19'0 0.0 999.2 -34.5
2018-Feb-15 20:20N 70°28' W 102°19'0 0.0 999.2 -34.7
2018-Feb-15 20:10N 70°28' W 102°19'0 0.0 999.1 -35.0
2018-Feb-15 19:30N 70°28' W 102°19'0 0.0 999.2 -35.9
2018-Feb-15 19:20N 70°28' W 102°19'1 3.6 999.2 -35.9
2018-Feb-15 19:10N 70°28' W 102°19'1 4.3 999.4 -35.9
2018-Feb-15 19:00N 70°28' W 102°18'0 0.0 999.2 -35.9
2018-Feb-15 18:40N 70°28' W 102°18'0 1.2 999.4 -36.1
2018-Feb-15 18:30N 70°28' W 102°17'0 0.3 999.4 -36.2
2018-Feb-15 17:50N 70°28' W 102°18'0 0.0 999.6 -36.2
2018-Feb-15 17:40N 70°28' W 102°18'0 0.0
2018-Feb-15 17:30N 70°28' W 102°18'1 6.0 999.9 -35.9
2018-Feb-15 17:20N 70°28' W 102°16'0 0.0 1000.2 -35.7
2018-Feb-15 17:00N 70°28' W 102°16'1 8.7 1000.3 -35.6
2018-Feb-15 16:50N 70°29' W 102°18'1 1.8 1000.3 -35.5
2018-Feb-15 16:10N 70°28' W 102°17'1 6.0 1000.5 -35.7
2018-Feb-15 16:00N 70°28' W 102°20'1 7.0 1000.5 -35.7
2018-Feb-15 15:50N 70°27' W 102°17'0 0.0 1000.5 -35.8
2018-Feb-15 15:40N 70°27' W 102°17'1 1.8 1000.6 -35.8
2018-Feb-15 15:20N 70°28' W 102°17'0 0.0 1000.6 -35.9
2018-Feb-15 15:10N 70°28' W 102°17'0 0.0 1000.6 -35.8
2018-Feb-15 14:50N 70°28' W 102°17'2 5.7 1000.9 -35.7
2018-Feb-15 14:30N 70°27' W 102°23'2 4.6 1001.2 -35.7
2018-Feb-15 14:10N 70°28' W 102°19'0 0.0 1001.2 -35.9
2018-Feb-15 14:00N 70°28' W 102°19'1 2.0 1001.3 -36.0
2018-Feb-15 13:30N 70°28' W 102°21'1 3.6 1001.6 -36.6
2018-Feb-15 13:10N 70°28' W 102°17'1 2.5 1001.7 -37.1
2018-Feb-15 12:50N 70°29' W 102°16'1 5.1 1001.7 -37.4
2018-Feb-15 12:40N 70°28' W 102°17'1 5.1 1001.8 -37.4
2018-Feb-15 12:30N 70°29' W 102°16'0 0.0 1002.0 -37.4
2018-Feb-15 12:20N 70°29' W 102°16'0 0.0 1002.0 -37.3
2018-Feb-15 11:50N 70°29' W 102°16'0 0.0 1001.8 -37.4
2018-Feb-15 11:40N 70°29' W 102°16'1 4.3 1001.8 -37.4
2018-Feb-15 11:30N 70°28' W 102°14'0 0.0 1002.0 -37.4
2018-Feb-15 11:10N 70°28' W 102°14'0 0.0 1002.1 -37.4
2018-Feb-15 11:00N 70°28' W 102°14'2 9.6 1002.2 -37.2
2018-Feb-15 10:50N 70°28' W 102°19'0 0.0 1002.2 -37.0
2018-Feb-15 10:40N 70°28' W 102°19'0 0.3 1002.2 -36.8
2018-Feb-15 10:00N 70°28' W 102°19'0 0.0 1002.7 -36.3
2018-Feb-15 09:50N 70°28' W 102°19'1 1.4 1002.8 -36.2
2018-Feb-15 09:00N 70°28' W 102°22'1 0.9 1003.1 -35.9
2018-Feb-15 08:20N 70°28' W 102°20'0 0.0 1003.3 -36.0
2018-Feb-15 08:10N 70°28' W 102°20'1 0.7 1003.2 -36.1
2018-Feb-15 07:20N 70°28' W 102°22'2 3.6 1003.1 -36.7
2018-Feb-15 06:40N 70°28' W 102°14'1 5.1 1002.9 -37.0
2018-Feb-15 06:30N 70°27' W 102°16'0 0.0 1003.1 -37.1
2018-Feb-15 05:50N 70°27' W 102°16'0 0.0 1003.2 -37.1
2018-Feb-15 05:00N 70°27' W 102°16'210.8 1003.5 -37.4
2018-Feb-15 04:50N 70°29' W 102°16'0 0.0 1003.6 -37.4
2018-Feb-15 04:10N 70°29' W 102°16'1 4.3 1003.8 -37.8
2018-Feb-15 04:00N 70°28' W 102°17'0 0.0 1004.0 -37.9
2018-Feb-15 03:20N 70°28' W 102°17'0 1.2 1004.0 -38.5
2018-Feb-15 03:10N 70°28' W 102°18'1 4.8 1004.0 -38.6
2018-Feb-15 03:00N 70°28' W 102°20'2 4.2 1004.2 -38.8
2018-Feb-15 02:30N 70°28' W 102°14'0 0.0 1003.9 -39.0
2018-Feb-15 02:20N 70°28' W 102°14'0 0.0 1004.0 -39.0
2018-Feb-15 02:00N 70°28' W 102°14'0 0.0 1003.9 -39.0
2018-Feb-15 01:40N 70°28' W 102°14'2 9.2 1003.8 -39.0
2018-Feb-15 01:30N 70°28' W 102°19'0 0.0 1003.8 -39.0
2018-Feb-15 01:20N 70°28' W 102°19'1 1.6 1003.8 -38.9
2018-Feb-15 00:50N 70°28' W 102°16'2 9.6 1003.8 -38.8
2018-Feb-15 00:40N 70°28' W 102°21'1 4.3 1004.0 -38.7
2018-Feb-15 00:20N 70°27' W 102°19'2 5.1 1004.2 -38.6
2018-Feb-15 00:00N 70°28' W 102°15'0 2.4 1003.9 -38.6
2018-Feb-14 23:50N 70°28' W 102°16'0 1.2 1003.9 -38.6
2018-Feb-14 23:40N 70°28' W 102°17'0 0.8 1003.8 -38.5
2018-Feb-14 23:10N 70°28' W 102°18'0 0.0 1004.0 -38.4
2018-Feb-14 23:00N 70°28' W 102°18'0 0.0 1004.0 -38.3
2018-Feb-14 22:40N 70°28' W 102°18'0 1.2 1004.0 -38.2
2018-Feb-14 22:30N 70°28' W 102°19'0 0.0 1004.2 -38.1
2018-Feb-14 22:20N 70°28' W 102°19'0 0.0 1004.2 -38.1
2018-Feb-14 22:10N 70°28' W 102°19'1 3.8 1004.2 -38.1
2018-Feb-14 22:00N 70°28' W 102°18'1 1.3 1004.2 -38.0
2018-Feb-14 21:30N 70°27' W 102°17'1 3.6 1004.0 -38.0
2018-Feb-14 21:20N 70°26' W 102°17'0 0.0 1004.0
2018-Feb-14 21:00N 70°26' W 102°17'0 0.0 1004.0 -38.1
2018-Feb-14 20:50N 70°26' W 102°17'0 0.0 1003.6 -38.1
2018-Feb-14 20:30N 70°26' W 102°17'0 0.0 1003.5 -38.0
2018-Feb-14 20:20N 70°26' W 102°17'1 2.9 1003.3 -38.1
2018-Feb-14 19:50N 70°28' W 102°20'0 0.0 1003.1 -38.3
2018-Feb-14 19:20N 70°28' W 102°20'1 3.6 1003.3 -38.7
2018-Feb-14 19:10N 70°28' W 102°18'1 3.6 1003.2 -38.8
2018-Feb-14 19:00N 70°28' W 102°16'1 3.6 1003.2 -39.0
2018-Feb-14 18:50N 70°28' W 102°18'0 0.0 1003.3 -39.1
2018-Feb-14 18:40N 70°28' W 102°18'2 7.0 1003.2 -39.3
2018-Feb-14 18:20N 70°29' W 102°12'0 0.0 1003.3 -39.5
2018-Feb-14 18:10N 70°29' W 102°12'0 0.0 1003.2 -39.5
2018-Feb-14 17:40N 70°29' W 102°12'0 0.0 1003.2 -39.7
2018-Feb-14 17:30N 70°29' W 102°12'0 0.0 1003.1 -39.7
2018-Feb-14 17:10N 70°29' W 102°12'0 0.0 1002.9 -39.6
2018-Feb-14 17:00N 70°29' W 102°12'0 0.0 1002.8 -39.6
2018-Feb-14 16:40N 70°29' W 102°12'0 0.0 1002.8 -39.8
2018-Feb-14 16:30N 70°29' W 102°12'0 0.0 1002.8 -39.9
2018-Feb-14 16:00N 70°29' W 102°12'0 0.0 1002.5 -39.7
2018-Feb-14 15:50N 70°29' W 102°12'0 0.0 1002.5 -39.7
2018-Feb-14 15:30N 70°29' W 102°12'0 0.0 1002.4 -39.8
2018-Feb-14 15:20N 70°29' W 102°12'0 0.0 1002.2 -39.8
2018-Feb-14 14:50N 70°29' W 102°12'0 0.0 1002.4 -39.5
2018-Feb-14 14:20N 70°29' W 102°12'0 0.0 1002.4 -39.1
2018-Feb-14 14:10N 70°29' W 102°12'0 0.0 1002.4 -39.0
2018-Feb-14 13:50N 70°29' W 102°12'0 0.0 1002.4 -38.8
2018-Feb-14 13:40N 70°29' W 102°12'0 0.0 1002.5 -38.8
2018-Feb-14 13:10N 70°29' W 102°12'0 0.0 1002.4 -38.3
2018-Feb-14 12:40N 70°29' W 102°12'0 0.0 1002.4 -37.7
2018-Feb-14 12:30N 70°29' W 102°12'0 0.0 1002.5 -37.5
2018-Feb-14 12:10N 70°29' W 102°12'0 0.0 1002.5 -37.0
2018-Feb-14 12:00N 70°29' W 102°12'0 0.0 1002.8 -36.7
2018-Feb-14 11:30N 70°29' W 102°12'2 4.0 1003.2 -35.9
2018-Feb-14 11:00N 70°29' W 102°18'0 0.0 1003.2 -35.7
2018-Feb-14 10:50N 70°29' W 102°18'1 3.6 1003.2 -35.8
2018-Feb-14 10:30N 70°28' W 102°17'1 8.1 1003.2 -35.7
2018-Feb-14 10:20N 70°29' W 102°16'0 0.0 1003.2 -35.6
2018-Feb-14 09:20N 70°29' W 102°16'0 0.0 1004.2 -35.1
2018-Feb-14 09:10N 70°29' W 102°16'1 2.2 1004.3 -34.9
2018-Feb-14 08:50N 70°28' W 102°17'0 0.0 1004.4 -34.5
2018-Feb-14 08:40N 70°28' W 102°17'1 0.7 1004.6 -34.4
2018-Feb-14 07:30N 70°28' W 102°19'0 0.0
2018-Feb-14 07:10N 70°28' W 102°19'1 6.0 1005.5 -32.9
2018-Feb-14 07:00N 70°28' W 102°16'0 0.0 1005.7 -32.9
2018-Feb-14 06:50N 70°28' W 102°16'1 1.9 1005.7 -32.8
2018-Feb-14 06:10N 70°26' W 102°17'0 0.0 1005.5 -32.3
2018-Feb-14 05:30N 70°26' W 102°17'2 9.4 1005.9 -32.2
2018-Feb-14 05:20N 70°28' W 102°14'0 0.0 1006.2 -32.4
2018-Feb-14 05:10N 70°28' W 102°14'211.1 1006.5 -32.6
2018-Feb-14 05:00N 70°29' W 102°18'0 0.0 1006.8 -32.8
2018-Feb-14 04:30N 70°29' W 102°18'1 7.2 1007.2 -32.8
2018-Feb-14 04:20N 70°29' W 102°14'0 0.0 -32.8
2018-Feb-14 03:50N 70°29' W 102°14'0 0.0 1007.4 -32.9
2018-Feb-14 03:40N 70°29' W 102°14'0 0.0 1007.4 -33.0
2018-Feb-14 03:30N 70°29' W 102°14'1 3.8 1007.6 -33.1
2018-Feb-14 03:20N 70°28' W 102°14'0 0.0 1007.7 -33.4
2018-Feb-14 03:00N 70°28' W 102°14'1 6.0 1008.1 -33.9
2018-Feb-14 02:50N 70°28' W 102°17'0 0.0 1008.3 -34.1
2018-Feb-14 02:40N 70°28' W 102°17'0 0.0 1008.4 -34.4
2018-Feb-14 02:10N 70°28' W 102°17'1 6.0
2018-Feb-14 02:00N 70°28' W 102°19'1 6.0 1009.0 -35.3
2018-Feb-14 01:50N 70°28' W 102°17'0 0.0 1009.2 -35.3
2018-Feb-14 01:40N 70°28' W 102°17'0 2.4 1009.2 -35.2
2018-Feb-14 01:30N 70°28' W 102°16'0 1.2 1009.5 -35.1
2018-Feb-14 01:20N 70°28' W 102°16'1 6.0 1009.6 -35.1
2018-Feb-14 01:10N 70°28' W 102°19'2 9.2 1009.6 -35.0
2018-Feb-14 01:00N 70°28' W 102°15'1 2.7 1009.8 -35.0
2018-Feb-14 00:30N 70°28' W 102°19'0 0.0 1010.2 -35.2
2018-Feb-14 00:10N 70°28' W 102°19'1 5.1 1010.5 -35.2
2018-Feb-14 00:00N 70°28' W 102°20'1 7.3 1010.5 -35.2
2018-Feb-13 23:50N 70°29' W 102°20'0 0.0 1010.6 -35.1
2018-Feb-13 23:40N 70°29' W 102°20'0 0.0 1010.7 -35.1
2018-Feb-13 23:30N 70°29' W 102°20'2 2.4 1010.7 -35.1
2018-Feb-13 22:50N 70°29' W 102°15'2 9.4 1011.1 -35.1
2018-Feb-13 22:40N 70°28' W 102°18'0 0.0 1011.1
2018-Feb-13 22:30N 70°28' W 102°18'0 0.0 1011.0 -35.1
2018-Feb-13 22:20N 70°28' W 102°18'0 0.0 1011.0 -35.0
2018-Feb-13 22:10N 70°28' W 102°18'0 0.0 1011.0 -35.0
2018-Feb-13 22:00N 70°28' W 102°18'0 0.0 1011.0 -35.0
2018-Feb-13 21:50N 70°28' W 102°18'0 0.0 1011.1 -35.0
2018-Feb-13 21:10N 70°28' W 102°18'0 0.0 1011.1 -34.8
2018-Feb-13 21:00N 70°28' W 102°18'0 0.0 1011.1 -34.8
2018-Feb-13 20:50N 70°28' W 102°18'1 3.6 1011.3 -35.0
2018-Feb-13 20:40N 70°28' W 102°20'0 0.0 1011.1 -35.1
2018-Feb-13 20:30N 70°28' W 102°20'0 0.0 1011.0 -35.2
2018-Feb-13 20:20N 70°28' W 102°20'0 0.0 1010.9 -35.5
2018-Feb-13 20:10N 70°28' W 102°20'0 0.0 1010.9 -35.9
2018-Feb-13 19:30N 70°28' W 102°20'0 0.0 1010.9 -37.5
2018-Feb-13 19:20N 70°28' W 102°20'0 0.0 1010.9 -37.6
2018-Feb-13 19:00N 70°28' W 102°20'0 0.0 1011.1 -38.2
2018-Feb-13 18:50N 70°28' W 102°20'1 3.6 1011.1 -38.6
2018-Feb-13 18:40N 70°28' W 102°18'0 0.0 1011.1 -38.8
2018-Feb-13 18:30N 70°28' W 102°18'1 0.9 1011.3 -38.9
2018-Feb-13 17:50N 70°28' W 102°18'0 0.0 1011.4 -39.7
2018-Feb-13 17:40N 70°28' W 102°18'0 0.6 1011.3 -39.9
2018-Feb-13 17:20N 70°28' W 102°17'0 0.0 1011.4 -40.3
2018-Feb-13 17:10N 70°28' W 102°17'214.9 1011.4 -40.4
2018-Feb-13 17:00N 70°29' W 102°10'0 0.0 1011.6 -40.7
2018-Feb-13 16:50N 70°29' W 102°10'0 0.0 1011.7 -40.8
2018-Feb-13 16:10N 70°29' W 102°10'0 0.0 1011.4 -41.0
2018-Feb-13 16:00N 70°29' W 102°10'320.8 1011.4
2018-Feb-13 15:50N 70°28' W 102°20'211.1 1011.3 -40.5
2018-Feb-13 15:40N 70°29' W 102°16'0 0.0 1011.1 -40.3
2018-Feb-13 15:30N 70°29' W 102°16'0 0.0 1011.3 -40.2
2018-Feb-13 15:20N 70°29' W 102°16'0 0.0 1011.4 -40.2
2018-Feb-13 15:10N 70°29' W 102°16'0 0.0 1011.3 -40.1
2018-Feb-13 14:30N 70°29' W 102°16'0 0.0 1011.0 -39.5
2018-Feb-13 14:20N 70°29' W 102°16'0 0.0 1010.9 -39.5
2018-Feb-13 14:10N 70°29' W 102°16'0 0.0 1010.5 -39.5
2018-Feb-13 14:00N 70°29' W 102°16'0 0.0 1010.3 -39.3
2018-Feb-13 13:50N 70°29' W 102°16'211.8 1010.3 -39.1
2018-Feb-13 13:40N 70°28' W 102°14'1 1.5 1010.3 -39.0
2018-Feb-13 12:50N 70°29' W 102°13'0 0.0 1009.9 -38.5
2018-Feb-13 12:40N 70°29' W 102°13'0 0.0 1010.0 -38.5
2018-Feb-13 12:30N 70°29' W 102°13'0 0.0 1009.9 -38.4
2018-Feb-13 12:10N 70°29' W 102°13'213.2 1009.8 -38.3
2018-Feb-13 12:00N 70°29' W 102°19'212.6 1009.8 -38.2
2018-Feb-13 11:50N 70°28' W 102°13'2 3.1 1009.8 -38.0
2018-Feb-13 11:10N 70°29' W 102°19'0 0.0 1009.4 -38.0
2018-Feb-13 11:00N 70°29' W 102°19'214.4 1009.2 -37.9
2018-Feb-13 10:50N 70°29' W 102°12'0 0.0 1009.1 -37.8
2018-Feb-13 10:20N 70°29' W 102°12'2 9.2 1008.8 -37.4
2018-Feb-13 10:10N 70°28' W 102°16'2 3.4 1008.8 -37.3
2018-Feb-13 09:30N 70°30' W 102°12'0 0.0 1008.5 -36.8
2018-Feb-13 09:20N 70°30' W 102°12'315.3 1008.4 -36.8
2018-Feb-13 09:10N 70°28' W 102°17'3 1.7 1008.3 -36.9
2018-Feb-13 07:40N 70°30' W 102°12'1 8.7 1007.0 -37.6
2018-Feb-13 07:30N 70°29' W 102°14'320.8 1006.8 -37.5
2018-Feb-13 07:20N 70°29' W 102°25'0 0.0 1006.6 -37.4
2018-Feb-13 07:10N 70°29' W 102°25'2 1.5
2018-Feb-13 06:00N 70°29' W 102°19'0 0.0 1005.5 -36.3
2018-Feb-13 05:50N 70°29' W 102°19'1 7.0
2018-Feb-13 05:40N 70°29' W 102°22'0 0.0 1005.1 -36.2
2018-Feb-13 05:30N 70°29' W 102°22'1 3.8 1005.0 -35.9
2018-Feb-13 05:20N 70°29' W 102°23'2 4.6 1004.7 -36.1
2018-Feb-13 04:50N 70°28' W 102°19'1 2.0 1004.3 -36.0
2018-Feb-13 04:20N 70°28' W 102°22'0 0.0 1004.0 -35.9
2018-Feb-13 04:00N 70°28' W 102°22'0 0.0 1003.9 -35.7
2018-Feb-13 03:50N 70°28' W 102°22'0 1.2 1003.9 -35.7
2018-Feb-13 03:40N 70°28' W 102°21'1 3.8 1003.8 -35.6
2018-Feb-13 03:30N 70°27' W 102°20'0 0.0 1003.6 -35.5
2018-Feb-13 03:20N 70°27' W 102°20'212.0 1003.3 -35.5
2018-Feb-13 03:10N 70°28' W 102°16'1 8.1 1003.2 -35.4
2018-Feb-13 03:00N 70°28' W 102°19'0 0.0 -35.4
2018-Feb-13 02:50N 70°28' W 102°19'0 0.0 1002.8 -35.3
2018-Feb-13 02:40N 70°28' W 102°19'0 0.0 1002.7 -35.3
2018-Feb-13 02:10N 70°28' W 102°19'0 0.0 1002.4 -35.1
2018-Feb-13 01:50N 70°28' W 102°19'0 2.4 1002.0 -35.1
2018-Feb-13 01:40N 70°28' W 102°20'1 3.8 1002.0 -35.1
2018-Feb-13 01:30N 70°27' W 102°21'0 0.0 1001.7 -35.1
2018-Feb-13 01:20N 70°27' W 102°21'0 0.0 -35.1
2018-Feb-13 01:10N 70°27' W 102°21'0 0.0 1001.7 -35.1
2018-Feb-13 01:00N 70°27' W 102°21'0 0.0 -35.1
2018-Feb-13 00:50N 70°27' W 102°21'0 0.0 1001.4 -35.1
2018-Feb-13 00:40N 70°27' W 102°21'315.3 1001.4 -35.1
2018-Feb-13 00:30N 70°29' W 102°16'1 1.8 1001.2 -35.0
2018-Feb-13 00:10N 70°28' W 102°16'0 0.0 1000.9 -34.7
2018-Feb-13 00:00N 70°28' W 102°16'0 0.0 1000.6 -34.6
2018-Feb-12 23:50N 70°28' W 102°16'2 3.4 1000.5 -34.4
2018-Feb-12 23:20N 70°28' W 102°20'1 4.0 1000.2
2018-Feb-12 23:00N 70°27' W 102°17'0 0.0 1000.1 -33.8
2018-Feb-12 22:50N 70°27' W 102°17'1 3.6 999.8 -33.6
2018-Feb-12 22:30N 70°28' W 102°16'0 1.2 999.4 -33.4
2018-Feb-12 22:20N 70°28' W 102°17'0 0.0 999.2 -33.1
2018-Feb-12 22:10N 70°28' W 102°17'0 0.0 999.0 -32.9
2018-Feb-12 21:40N 70°28' W 102°17'0 0.6 998.4 -32.6
2018-Feb-12 21:20N 70°28' W 102°17'0 0.0 998.3 -32.4
2018-Feb-12 21:10N 70°28' W 102°17'0 0.0 998.3
2018-Feb-12 20:50N 70°28' W 102°17'0 2.4 998.0 -32.2
2018-Feb-12 20:40N 70°28' W 102°19'0 2.4 997.9 -32.2
2018-Feb-12 20:30N 70°28' W 102°17'0 0.0 997.7 -32.2
2018-Feb-12 19:40N 70°28' W 102°17'0 0.0 996.9 -32.2
2018-Feb-12 19:30N 70°28' W 102°17'0 0.0 996.9 -32.2
2018-Feb-12 19:10N 70°28' W 102°17'0 0.0 996.8 -32.3
2018-Feb-12 19:00N 70°28' W 102°17'0 2.4 996.6 -32.4
2018-Feb-12 18:50N 70°28' W 102°16'1 0.7 996.5 -32.5
2018-Feb-12 18:00N 70°29' W 102°16'1 7.6 995.7 -33.8
2018-Feb-12 17:50N 70°28' W 102°15'0 0.0 995.5 -34.1
2018-Feb-12 17:30N 70°28' W 102°15'211.1 995.4 -34.2
2018-Feb-12 17:20N 70°29' W 102°19'1 4.3 995.4 -34.1
2018-Feb-12 17:10N 70°29' W 102°18'0 0.0 995.3 -34.1
2018-Feb-12 16:30N 70°29' W 102°18'0 0.0 995.1 -33.6
2018-Feb-12 16:20N 70°29' W 102°18'1 7.0 995.1 -33.4
2018-Feb-12 16:10N 70°29' W 102°21'0 0.0
2018-Feb-12 15:50N 70°29' W 102°21'0 0.0 995.1 -32.6
2018-Feb-12 15:40N 70°29' W 102°21'1 5.1 995.0 -32.2
2018-Feb-12 15:30N 70°28' W 102°19'0 0.0 995.0 -32.1
2018-Feb-12 14:50N 70°28' W 102°19'1 3.6 995.3 -31.1
2018-Feb-12 14:40N 70°28' W 102°17'0 0.0 995.4 -30.8
2018-Feb-12 14:30N 70°28' W 102°17'0 0.6 995.4
2018-Feb-12 14:10N 70°28' W 102°18'0 0.0 995.3 -29.7
2018-Feb-12 14:00N 70°28' W 102°18'0 0.0 995.1 -29.2
2018-Feb-12 13:50N 70°28' W 102°18'0 0.0 995.0 -28.9
2018-Feb-12 13:10N 70°28' W 102°18'0 0.0 994.7 -27.5
2018-Feb-12 13:00N 70°28' W 102°18'0 0.0 995.0 -27.3
2018-Feb-12 12:50N 70°28' W 102°18'0 0.0 995.1 -27.0
2018-Feb-12 12:30N 70°28' W 102°18'0 0.0 995.0 -26.8
2018-Feb-12 12:20N 70°28' W 102°18'0 0.0 995.1 -26.5
2018-Feb-12 11:30N 70°28' W 102°18'0 0.0 995.4 -26.1
2018-Feb-12 11:20N 70°28' W 102°18'0 0.0 995.3 -26.1
2018-Feb-12 11:10N 70°28' W 102°18'0 0.0 995.5 -26.1
2018-Feb-12 10:40N 70°28' W 102°18'0 0.0 995.5 -26.2
2018-Feb-12 09:50N 70°28' W 102°18'0 0.0 995.8 -26.4
2018-Feb-12 09:40N 70°28' W 102°18'0 0.0 995.8 -26.4
2018-Feb-12 09:30N 70°28' W 102°18'0 0.0 996.1 -26.3
2018-Feb-12 08:10N 70°28' W 102°18'0 0.0 996.5 -26.4
2018-Feb-12 08:00N 70°28' W 102°18'0 0.0 996.6 -26.6
2018-Feb-12 07:50N 70°28' W 102°18'0 1.2 996.5 -26.7
2018-Feb-12 07:40N 70°28' W 102°19'0 0.2 996.6 -26.6
2018-Feb-12 06:30N 70°28' W 102°18'0 0.0 997.3 -27.4
2018-Feb-12 06:00N 70°28' W 102°18'0 0.0 997.7 -28.0
2018-Feb-12 05:50N 70°28' W 102°18'0 0.0 997.7 -27.8
2018-Feb-12 05:30N 70°28' W 102°18'0 0.0 998.0 -27.5
2018-Feb-12 05:10N 70°28' W 102°18'0 0.0 998.3 -27.2
2018-Feb-12 05:00N 70°28' W 102°18'0 0.0 998.3 -26.8
2018-Feb-12 04:50N 70°28' W 102°18'0 0.0 998.3 -26.9
2018-Feb-12 04:20N 70°28' W 102°18'0 0.0 998.6 -26.2
2018-Feb-12 04:10N 70°28' W 102°18'0 0.6 998.7 -26.1
2018-Feb-12 03:50N 70°28' W 102°17'0 0.0 998.7 -25.7
2018-Feb-12 03:40N 70°28' W 102°17'0 0.0 998.7 -25.4
2018-Feb-12 03:30N 70°28' W 102°17'0 0.0 998.8 -25.2
2018-Feb-12 03:20N 70°28' W 102°17'0 0.0 999.1 -24.9
2018-Feb-12 03:10N 70°28' W 102°17'0 0.4 999.2 -24.6
2018-Feb-12 02:40N 70°28' W 102°18'0 0.0 999.5 -23.7
2018-Feb-12 02:30N 70°28' W 102°18'0 0.0 999.6 -23.4
2018-Feb-12 02:10N 70°28' W 102°18'0 0.0 999.8 -23.0
2018-Feb-12 02:00N 70°28' W 102°18'1 3.8 999.9 -22.9
2018-Feb-12 01:50N 70°28' W 102°19'1 3.8 1000.1 -22.8
2018-Feb-12 01:40N 70°28' W 102°18'0 0.0 1000.1 -22.7
2018-Feb-12 01:30N 70°28' W 102°18'0 0.0 1000.1 -22.6
2018-Feb-12 01:00N 70°28' W 102°18'1 3.6 1000.3 -22.5
2018-Feb-12 00:50N 70°28' W 102°18'1 1.2 1000.5 -22.2
2018-Feb-12 00:20N 70°28' W 102°18'0 0.0 1000.9 -22.0
2018-Feb-12 00:10N 70°28' W 102°18'0 0.0 1001.0 -21.9
2018-Feb-12 00:00N 70°28' W 102°18'0 0.0 -21.9
2018-Feb-11 23:50N 70°28' W 102°18'0 0.0 1001.3 -22.0
2018-Feb-11 23:20N 70°28' W 102°18'1 4.8 1001.7 -22.0
2018-Feb-11 23:10N 70°28' W 102°16'1 2.4 1002.0 -22.0
2018-Feb-11 22:50N 70°28' W 102°18'0 0.0 1002.2 -22.1
2018-Feb-11 22:40N 70°28' W 102°18'0 0.0 1002.4 -22.1
2018-Feb-11 22:30N 70°28' W 102°18'0 0.0 1002.4 -22.2
2018-Feb-11 22:10N 70°28' W 102°18'0 0.0 1002.7 -22.4
2018-Feb-11 21:40N 70°28' W 102°18'0 0.0 1003.2 -22.7
2018-Feb-11 21:30N 70°28' W 102°18'0 0.0 1003.2 -22.9
2018-Feb-11 21:10N 70°28' W 102°18'0 0.0 1003.6 -23.2
2018-Feb-11 21:00N 70°28' W 102°18'0 1.2 1003.8 -23.2
2018-Feb-11 20:50N 70°28' W 102°19'0 0.2 1004.0 -23.3
2018-Feb-11 20:00N 70°28' W 102°18'1 3.8 1004.7 -23.9
2018-Feb-11 19:50N 70°28' W 102°17'1 1.9 1004.8 -24.0
2018-Feb-11 19:30N 70°28' W 102°18'1 3.8 1005.1 -24.1
2018-Feb-11 19:20N 70°28' W 102°17'0 2.4 1005.3 -24.2
2018-Feb-11 19:10N 70°28' W 102°19'0 0.0 1005.5
2018-Feb-11 18:10N 70°28' W 102°19'1 3.6 1006.5 -24.8
2018-Feb-11 18:00N 70°28' W 102°19'0 0.0 1006.5
2018-Feb-11 17:50N 70°28' W 102°19'0 0.0 1006.9 -25.0
2018-Feb-11 17:40N 70°28' W 102°19'1 3.8 1007.0 -25.1
2018-Feb-11 17:30N 70°28' W 102°18'0 0.0 -25.2
2018-Feb-11 16:30N 70°28' W 102°18'1 2.2 1008.4 -26.3
2018-Feb-11 16:10N 70°28' W 102°17'1 5.1 1008.5 -26.6
2018-Feb-11 16:00N 70°28' W 102°19'1 4.8 1008.7 -26.8
2018-Feb-11 15:50N 70°28' W 102°16'0 0.0 1008.8 -26.9
2018-Feb-11 15:20N 70°28' W 102°16'0 0.6 1009.4 -27.2
2018-Feb-11 15:00N 70°28' W 102°17'0 0.0 1009.6 -27.5
2018-Feb-11 14:50N 70°28' W 102°17'0 0.8 1009.9 -27.7
2018-Feb-11 14:20N 70°28' W 102°18'1 4.3 1010.6 -28.0
2018-Feb-11 14:10N 70°28' W 102°17'0 0.4 1010.6 -28.2
2018-Feb-11 13:40N 70°28' W 102°16'1 4.3 1011.0 -28.4
2018-Feb-11 13:30N 70°28' W 102°17'0 0.0 1011.1 -28.6
2018-Feb-11 13:20N 70°28' W 102°17'0 0.0 1011.3 -28.8
2018-Feb-11 13:10N 70°28' W 102°17'1 2.2 1011.6 -29.0
2018-Feb-11 12:50N 70°28' W 102°19'0 1.2 1012.0 -29.3
2018-Feb-11 12:40N 70°28' W 102°18'0 0.0 1012.1 -29.5
2018-Feb-11 12:30N 70°28' W 102°18'0 0.4 1012.2 -29.7
2018-Feb-11 12:00N 70°28' W 102°17'0 1.2 1012.8 -30.2
2018-Feb-11 11:50N 70°28' W 102°18'0 0.6 1013.1 -30.5
2018-Feb-11 11:30N 70°28' W 102°19'0 0.0 1013.2 -30.7
2018-Feb-11 11:20N 70°28' W 102°19'1 3.0 1013.2
2018-Feb-11 11:00N 70°28' W 102°16'0 0.0 1013.2 -31.0
2018-Feb-11 10:50N 70°28' W 102°16'1 1.7 1013.5 -31.0
2018-Feb-11 10:20N 70°28' W 102°18'0 0.0 1013.3 -31.1
2018-Feb-11 10:10N 70°28' W 102°18'0 0.0 1013.5 -31.0
2018-Feb-11 09:50N 70°28' W 102°18'0 0.0 1013.5 -30.8
2018-Feb-11 09:40N 70°28' W 102°18'0 0.0 -30.7
2018-Feb-11 08:40N 70°28' W 102°18'0 0.0 1013.7 -30.4
2018-Feb-11 08:30N 70°28' W 102°18'0 0.0 1013.7 -30.3
2018-Feb-11 08:10N 70°28' W 102°18'0 0.0 1013.6 -30.3
2018-Feb-11 08:00N 70°28' W 102°18'0 0.0 1013.7 -30.4
2018-Feb-11 07:00N 70°28' W 102°18'0 0.0 1013.7 -30.1
2018-Feb-11 06:20N 70°28' W 102°18'0 0.0 1014.0 -30.2
2018-Feb-11 05:40N 70°28' W 102°18'0 0.0 1014.0 -29.8
2018-Feb-11 05:30N 70°28' W 102°18'0 0.0 1014.0 -29.8
2018-Feb-11 05:20N 70°28' W 102°18'0 0.0 1014.2 -29.9
2018-Feb-11 04:40N 70°28' W 102°18'0 0.0 1014.3 -30.2
2018-Feb-11 04:30N 70°28' W 102°18'1 2.2 1014.3 -30.3
2018-Feb-11 04:10N 70°28' W 102°19'1 3.8 1014.4 -30.5
2018-Feb-11 04:00N 70°28' W 102°19'0 0.0 1014.3 -30.4
2018-Feb-11 03:50N 70°28' W 102°19'0 1.2 1014.3 -30.4
2018-Feb-11 03:40N 70°28' W 102°18'0 0.3 1014.3 -30.3
2018-Feb-11 03:00N 70°28' W 102°19'0 0.0 1014.3 -30.1
2018-Feb-11 02:50N 70°28' W 102°19'   1014.3 -30.0
Track history (hours):
 
Tides and Currents Weather Stations Pressure Air Temp Water Temp Dewpoint Dewpoint Depression Visibility Wind Speed Wind Dir Waves Ship Positions

Drifting buoy 48507

Last reported at 2018-Feb-21 02:50 UTC. Time now 2018-Feb-21 03:44 UTC.
Position N 70°28' W 102°16'.

Barometer 1016.3 mb
Air temperature -40.0 ° C

Date/timePositionNaut miles runAvg speedWind from/ knotsBaromVisibWave heightAir tempDewpointWater temp
2018-Feb-21 02:50N 70°28' W 102°16'0 0.0 1016.3 -40.0
2018-Feb-21 02:40N 70°28' W 102°16'0 0.0 1016.3 -40.0
2018-Feb-21 02:10N 70°28' W 102°16'0 0.0 1016.6 -39.8
2018-Feb-21 02:00N 70°28' W 102°16'0 0.0 1016.6 -39.8
2018-Feb-21 01:50N 70°28' W 102°16'0 0.0 1016.6 -39.8
2018-Feb-21 01:40N 70°28' W 102°16'0 0.0 1016.8 -39.7
2018-Feb-21 01:10N 70°28' W 102°16'0 0.0 1017.4 -39.3
2018-Feb-21 01:00N 70°28' W 102°16'0 0.0 1017.6 -39.2
2018-Feb-21 00:50N 70°28' W 102°16'0 0.0 1017.6 -39.0
2018-Feb-21 00:30N 70°28' W 102°16'0 0.0 1017.7 -38.8
2018-Feb-21 00:20N 70°28' W 102°16'0 0.0 1017.6 -38.6
2018-Feb-21 00:10N 70°28' W 102°16'0 0.0 1017.7 -38.4
2018-Feb-21 00:00N 70°28' W 102°16'0 0.0 1017.8 -38.1
2018-Feb-20 23:50N 70°28' W 102°16'0 0.0 1018.1 -38.0
2018-Feb-20 23:20N 70°28' W 102°16'1 3.8 1018.1 -37.3
2018-Feb-20 23:10N 70°28' W 102°16'0 0.0
2018-Feb-20 22:50N 70°28' W 102°16'1 4.3 1018.4 -36.4
2018-Feb-20 22:40N 70°28' W 102°17'0 0.0 1018.5 -35.9
2018-Feb-20 22:30N 70°28' W 102°17'0 0.0 1018.4 -35.9
2018-Feb-20 22:20N 70°28' W 102°17'0 0.0 1018.4 -35.7
2018-Feb-20 22:10N 70°28' W 102°17'1 4.0 1018.4 -35.5
2018-Feb-20 21:50N 70°28' W 102°21'1 8.1 1018.7 -35.3
2018-Feb-20 21:40N 70°28' W 102°17'0 0.0 1018.7 -35.2
2018-Feb-20 21:30N 70°28' W 102°17'0 0.0 1018.8 -35.2
2018-Feb-20 21:20N 70°28' W 102°17'0 0.0 1018.9 -35.2
2018-Feb-20 21:10N 70°28' W 102°17'0 0.0 1018.9 -35.3
2018-Feb-20 21:00N 70°28' W 102°17'0 0.0 1018.9 -35.4
2018-Feb-20 20:50N 70°28' W 102°17'0 0.0 1018.9 -35.4
2018-Feb-20 20:40N 70°28' W 102°17'1 0.7 1019.1 -35.5
2018-Feb-20 19:50N 70°28' W 102°19'0 0.0 1019.4 -36.2
2018-Feb-20 19:40N 70°28' W 102°19'0 0.0 1019.4 -36.3
2018-Feb-20 19:30N 70°28' W 102°19'0 0.0 1019.2 -36.5
2018-Feb-20 19:20N 70°28' W 102°19'0 0.0 1019.4 -36.6
2018-Feb-20 19:10N 70°28' W 102°19'0 0.0 1019.4 -36.7
2018-Feb-20 19:00N 70°28' W 102°19'0 0.0 1019.4 -37.0
2018-Feb-20 18:50N 70°28' W 102°19'0 0.0 1019.4 -37.2
2018-Feb-20 18:10N 70°28' W 102°19'0 0.0 1019.4 -37.8
2018-Feb-20 18:00N 70°28' W 102°19'1 3.6 1019.5 -37.9
2018-Feb-20 17:50N 70°28' W 102°19'1 3.6 1019.5 -38.0
2018-Feb-20 17:40N 70°28' W 102°17'0 0.0 1019.5 -38.1
2018-Feb-20 17:30N 70°28' W 102°17'0 0.6 1019.6 -38.3
2018-Feb-20 16:50N 70°28' W 102°16'0 0.6 1019.8 -38.5
2018-Feb-20 16:30N 70°28' W 102°17'1 4.3 1019.8 -38.5
2018-Feb-20 16:20N 70°29' W 102°18'0 0.0 1019.9 -38.5
2018-Feb-20 16:10N 70°29' W 102°18'0 1.2 -38.5
2018-Feb-20 16:00N 70°29' W 102°19'0 0.0 1020.2 -38.4
2018-Feb-20 15:50N 70°29' W 102°19'0 0.0 1020.2 -38.4
2018-Feb-20 15:40N 70°29' W 102°19'0 0.0 1020.2 -38.3
2018-Feb-20 14:50N 70°29' W 102°19'0 0.0 1020.0 -38.3
2018-Feb-20 14:40N 70°29' W 102°19'2 9.4 1020.0 -38.2
2018-Feb-20 14:30N 70°28' W 102°16'1 3.6 -38.2
2018-Feb-20 14:20N 70°28' W 102°16'1 6.0 1020.3 -38.1
2018-Feb-20 14:10N 70°28' W 102°19'1 3.6 1020.6 -38.1
2018-Feb-20 14:00N 70°28' W 102°17'0 1.2 1020.7 -38.0
2018-Feb-20 13:50N 70°28' W 102°17'0 0.0 1020.7 -38.0
2018-Feb-20 13:10N 70°28' W 102°17'0 0.0 1020.9 -38.0
2018-Feb-20 13:00N 70°28' W 102°17'1 2.2 1020.9 -37.9
2018-Feb-20 12:40N 70°29' W 102°16'0 0.0 -38.0
2018-Feb-20 12:30N 70°29' W 102°16'1 3.8 1021.0 -38.0
2018-Feb-20 12:20N 70°28' W 102°16'0 0.0 1021.3 -38.0
2018-Feb-20 12:10N 70°28' W 102°16'1 0.9 1021.5 -38.0
2018-Feb-20 11:30N 70°28' W 102°17'1 3.6 1022.0 -37.6
2018-Feb-20 11:20N 70°28' W 102°16'1 1.2 1022.0 -37.5
2018-Feb-20 10:50N 70°28' W 102°17'0 0.0 1021.8 -37.1
2018-Feb-20 10:40N 70°28' W 102°17'0 0.0 1021.8 -37.1
2018-Feb-20 10:30N 70°28' W 102°17'0 0.0 1022.0
2018-Feb-20 09:50N 70°28' W 102°17'0 1.2 1022.0 -36.8
2018-Feb-20 09:40N 70°28' W 102°18'0 0.3 1021.8 -36.7
2018-Feb-20 09:00N 70°28' W 102°19'0 0.0 1022.0 -36.5
2018-Feb-20 08:50N 70°28' W 102°19'1 1.0 1022.1 -36.4
2018-Feb-20 08:00N 70°28' W 102°20'0 0.6 1022.0 -36.2
2018-Feb-20 07:20N 70°28' W 102°19'0 0.0 1021.8 -36.3
2018-Feb-20 07:10N 70°28' W 102°19'2 2.4 1022.0 -36.3
2018-Feb-20 06:30N 70°28' W 102°14'1 3.6 1022.1 -36.4
2018-Feb-20 06:20N 70°28' W 102°16'0 0.0 1022.0
2018-Feb-20 05:50N 70°28' W 102°16'0 0.0 1022.0 -36.9
2018-Feb-20 05:40N 70°28' W 102°16'0 0.0 1022.1 -37.1
2018-Feb-20 05:30N 70°28' W 102°16'1 0.9 1022.2 -37.2
2018-Feb-20 04:50N 70°28' W 102°17'0 0.0 1022.6 -37.1
2018-Feb-20 04:40N 70°28' W 102°17'0 0.4 1022.8 -37.0
2018-Feb-20 04:10N 70°28' W 102°16'1 3.6 1023.1 -36.7
2018-Feb-20 04:00N 70°28' W 102°14'1 5.1 1023.2 -36.6
2018-Feb-20 03:50N 70°29' W 102°16'1 8.1 1023.1 -36.5
2018-Feb-20 03:40N 70°28' W 102°14'1 2.7 1023.1 -36.5
2018-Feb-20 03:10N 70°29' W 102°16'0 0.0 1023.1 -37.0
2018-Feb-20 03:00N 70°29' W 102°16'0 0.0 1023.1 -37.2
2018-Feb-20 02:30N 70°29' W 102°16'0 0.0 1023.2 -37.1
2018-Feb-20 02:20N 70°29' W 102°16'0 0.0 1023.3 -37.1
2018-Feb-20 02:10N 70°29' W 102°16'2 9.4 1023.3 -37.1
2018-Feb-20 02:00N 70°28' W 102°13'0 0.0 1023.3 -37.0
2018-Feb-20 01:30N 70°28' W 102°13'0 0.0 1023.3 -36.7
2018-Feb-20 01:20N 70°28' W 102°13'0 0.0 1023.3 -36.7
2018-Feb-20 01:10N 70°28' W 102°13'1 3.8 1023.5 -36.8
2018-Feb-20 01:00N 70°28' W 102°14'212.6 1023.3 -36.9
2018-Feb-20 00:50N 70°28' W 102°20'1 7.0 1023.3 -37.0
2018-Feb-20 00:40N 70°28' W 102°17'0 0.0 1023.3 -37.3
2018-Feb-20 00:30N 70°28' W 102°17'0 2.4 1023.5 -37.4
2018-Feb-20 00:20N 70°28' W 102°18'0 0.0 1023.6 -37.6
2018-Feb-19 23:50N 70°28' W 102°18'0 0.0 1023.7 -37.9
2018-Feb-19 23:40N 70°28' W 102°18'1 2.2 1023.7 -37.8
2018-Feb-19 23:20N 70°28' W 102°19'0 0.0 1023.9 -37.5
2018-Feb-19 23:10N 70°28' W 102°19'0 2.4 1023.9 -37.3
2018-Feb-19 23:00N 70°28' W 102°20'0 0.0 1023.9 -36.9
2018-Feb-19 22:50N 70°28' W 102°20'0 0.0 1023.9 -36.5
2018-Feb-19 22:40N 70°28' W 102°20'0 0.0 1023.9 -36.0
2018-Feb-19 22:00N 70°28' W 102°20'0 0.0 1023.7 -35.1
2018-Feb-19 21:40N 70°28' W 102°20'0 0.0 1023.7 -35.2
2018-Feb-19 21:30N 70°28' W 102°20'0 0.0 1023.7 -35.3
2018-Feb-19 21:20N 70°28' W 102°20'0 0.0 1023.7 -35.5
2018-Feb-19 21:10N 70°28' W 102°20'0 0.0 1023.7 -35.7
2018-Feb-19 21:00N 70°28' W 102°20'0 0.0 1023.7 -35.9
2018-Feb-19 20:00N 70°28' W 102°20'0 0.0 1023.5 -37.5
2018-Feb-19 19:50N 70°28' W 102°20'0 0.0 1023.5 -37.9
2018-Feb-19 19:40N 70°28' W 102°20'0 0.0 1023.5 -38.4
2018-Feb-19 19:30N 70°28' W 102°20'0 0.0 1023.6 -38.8
2018-Feb-19 19:20N 70°28' W 102°20'0 0.0 1023.6 -39.1
2018-Feb-19 18:50N 70°28' W 102°20'0 0.0 1023.7 -40.2
2018-Feb-19 18:20N 70°28' W 102°20'0 0.0 1023.6 -41.2
2018-Feb-19 18:10N 70°28' W 102°20'0 0.0 1023.6 -41.6
2018-Feb-19 18:00N 70°28' W 102°20'0 0.0 1023.7 -41.8
2018-Feb-19 17:50N 70°28' W 102°20'0 0.0 1023.6 -42.1
2018-Feb-19 17:40N 70°28' W 102°20'0 0.0 1023.7 -42.4
2018-Feb-19 16:40N 70°28' W 102°20'212.6 1023.6 -43.1
2018-Feb-19 16:30N 70°27' W 102°14'1 7.3 1023.6
2018-Feb-19 16:20N 70°28' W 102°15'211.1 1023.5 -43.3
2018-Feb-19 16:10N 70°27' W 102°19'0 0.0 1023.5 -43.4
2018-Feb-19 16:00N 70°27' W 102°19'0 0.0 1023.5 -43.6
2018-Feb-19 15:00N 70°27' W 102°19'0 0.0 1023.5 -44.4
2018-Feb-19 14:50N 70°27' W 102°19'1 3.8 1023.5 -44.6
2018-Feb-19 14:40N 70°28' W 102°19'0 0.0 1023.5 -44.7
2018-Feb-19 14:30N 70°28' W 102°19'1 3.6 1023.5 -44.8
2018-Feb-19 14:20N 70°28' W 102°19'1 1.4 1023.5 -44.9
2018-Feb-19 13:50N 70°28' W 102°20'1 1.4 1023.5 -45.0
2018-Feb-19 13:20N 70°28' W 102°19'0 0.0 1023.5 -45.4
2018-Feb-19 13:10N 70°28' W 102°19'0 1.2 1023.5 -45.5
2018-Feb-19 12:50N 70°28' W 102°17'214.9 1023.5 -46.0
2018-Feb-19 12:40N 70°29' W 102°10'0 0.0 1023.5 -46.1
2018-Feb-19 11:40N 70°29' W 102°10'0 0.0 1023.1 -46.9
2018-Feb-19 11:30N 70°29' W 102°10'3 8.0 1022.9 -46.9
2018-Feb-19 11:10N 70°28' W 102°18'0 0.0 1023.1 -46.5
2018-Feb-19 11:00N 70°28' W 102°18'0 0.0 1023.1 -46.4
2018-Feb-19 10:00N 70°28' W 102°18'0 0.0 1022.6 -46.4
2018-Feb-19 09:50N 70°28' W 102°18'0 0.0 1022.6 -46.3
2018-Feb-19 09:30N 70°28' W 102°18'0 0.0 1022.6 -46.3
2018-Feb-19 09:20N 70°28' W 102°18'0 0.0 1022.6 -46.3
2018-Feb-19 08:20N 70°28' W 102°18'0 0.0 1022.8 -46.0
2018-Feb-19 08:10N 70°28' W 102°18'0 0.0 1022.8 -46.0
2018-Feb-19 07:50N 70°28' W 102°18'0 0.0 1022.6 -46.1
2018-Feb-19 07:40N 70°28' W 102°18'0 0.0 1022.6 -46.2
2018-Feb-19 06:50N 70°28' W 102°18'0 0.0 1022.1 -46.0
2018-Feb-19 06:10N 70°28' W 102°18'0 0.0 1021.8 -45.7
2018-Feb-19 05:40N 70°28' W 102°18'0 0.0 1021.4 -45.6
2018-Feb-19 05:10N 70°28' W 102°18'0 0.0 1021.1 -45.2
2018-Feb-19 05:00N 70°28' W 102°18'0 0.0 1021.3 -45.1
2018-Feb-19 04:40N 70°28' W 102°18'0 0.0 1021.0 -44.8
2018-Feb-19 04:30N 70°28' W 102°18'0 0.0 1021.0 -44.7
2018-Feb-19 04:20N 70°28' W 102°18'0 0.0 1020.9 -44.7
2018-Feb-19 04:10N 70°28' W 102°18'0 0.0 1020.9 -44.4
2018-Feb-19 04:00N 70°28' W 102°18'0 0.0 1020.9 -44.2
2018-Feb-19 03:30N 70°28' W 102°18'0 0.0 1020.3 -43.9
2018-Feb-19 03:20N 70°28' W 102°18'0 0.0 1020.2 -43.8
2018-Feb-19 03:00N 70°28' W 102°18'0 0.0 1020.3 -43.6
2018-Feb-19 02:50N 70°28' W 102°18'0 0.0 1020.2 -43.6
2018-Feb-19 02:40N 70°28' W 102°18'0 0.0 1020.0 -43.5
2018-Feb-19 02:30N 70°28' W 102°18'0 0.0 1020.3 -43.5
2018-Feb-19 02:20N 70°28' W 102°18'0 0.0 1020.2 -43.5
2018-Feb-19 01:50N 70°28' W 102°18'0 0.0 1020.3 -42.9
2018-Feb-19 01:40N 70°28' W 102°18'0 0.0 1020.6 -42.7
2018-Feb-19 01:20N 70°28' W 102°18'0 0.0 1020.2 -42.1
2018-Feb-19 01:10N 70°28' W 102°18'0 0.0 1020.0 -41.8
2018-Feb-19 01:00N 70°28' W 102°18'0 0.0 1020.0 -41.7
2018-Feb-19 00:50N 70°28' W 102°18'0 0.0 1019.9 -41.5
2018-Feb-19 00:40N 70°28' W 102°18'0 0.0 1019.9 -41.3
2018-Feb-19 00:30N 70°28' W 102°18'0 0.0 1019.6 -41.0
2018-Feb-19 00:10N 70°28' W 102°18'0 0.0 1019.6 -40.5
2018-Feb-19 00:00N 70°28' W 102°18'1 3.5 1019.6 -40.3
2018-Feb-18 23:40N 70°28' W 102°21'0 0.0 1019.4 -39.8
2018-Feb-18 23:30N 70°28' W 102°21'0 0.0 1019.4 -39.4
2018-Feb-18 23:20N 70°28' W 102°21'0 0.0 1019.4 -38.9
2018-Feb-18 23:10N 70°28' W 102°21'0 0.0 1019.5 -38.4
2018-Feb-18 23:00N 70°28' W 102°21'0 0.0 1019.2 -37.9
2018-Feb-18 22:20N 70°28' W 102°21'2 7.0 1018.8 -36.1
2018-Feb-18 22:00N 70°29' W 102°15'318.8 1018.4 -35.7
2018-Feb-18 21:50N 70°26' W 102°21'0 0.0 1018.4 -35.7
2018-Feb-18 21:40N 70°26' W 102°21'2 7.2 1018.1 -35.7
2018-Feb-18 21:20N 70°29' W 102°21'214.4 1018.0 -35.8
2018-Feb-18 21:10N 70°26' W 102°21'410.8 1017.8 -35.9
2018-Feb-18 20:50N 70°30' W 102°22'1 7.3 1017.7 -35.9
2018-Feb-18 20:40N 70°29' W 102°21'0 0.0 1017.6 -35.9
2018-Feb-18 20:10N 70°29' W 102°21'211.4 1017.0 -36.0
2018-Feb-18 20:00N 70°28' W 102°16'0 1.2 1017.4 -36.1
2018-Feb-18 19:50N 70°28' W 102°16'0 0.0 1017.4 -36.2
2018-Feb-18 19:40N 70°28' W 102°16'1 0.5 1017.4 -36.3
2018-Feb-18 18:30N 70°28' W 102°18'0 0.0 1016.9 -36.6
2018-Feb-18 18:20N 70°28' W 102°18'0 0.0 1016.9 -36.7
2018-Feb-18 18:00N 70°28' W 102°18'0 0.0 1016.6 -36.6
2018-Feb-18 17:50N 70°28' W 102°18'2 2.2 1016.3 -36.6
2018-Feb-18 16:50N 70°29' W 102°23'0 0.0 1016.2 -36.1
2018-Feb-18 16:40N 70°29' W 102°23'0 0.0 1016.2 -35.9
2018-Feb-18 16:30N 70°29' W 102°23'0 0.0 1016.2 -35.9
2018-Feb-18 16:20N 70°29' W 102°23'0 0.0 1016.1 -35.8
2018-Feb-18 16:10N 70°29' W 102°23'3 8.5 1016.2 -35.8
2018-Feb-18 15:50N 70°28' W 102°17'3 4.3 1016.1 -35.8
2018-Feb-18 15:10N 70°29' W 102°23'0 0.0 1016.2 -35.9
2018-Feb-18 15:00N 70°29' W 102°23'0 0.0 1016.3 -35.9
2018-Feb-18 14:50N 70°29' W 102°23'0 0.0 1016.5 -35.9
2018-Feb-18 14:40N 70°29' W 102°23'0 0.0 1016.3 -35.9
2018-Feb-18 14:30N 70°29' W 102°23'1 0.9 1016.3 -35.9
2018-Feb-18 13:40N 70°29' W 102°22'0 0.0 -36.0
2018-Feb-18 13:30N 70°29' W 102°22'0 0.0 1016.5 -36.0
2018-Feb-18 13:20N 70°29' W 102°22'0 1.2 1016.5 -36.0
2018-Feb-18 13:10N 70°29' W 102°22'214.8 1016.5 -36.0
2018-Feb-18 13:00N 70°26' W 102°20'0 0.0 1016.5 -36.1
2018-Feb-18 12:50N 70°26' W 102°20'3 2.9 1016.5 -36.1
2018-Feb-18 11:50N 70°26' W 102°28'0 0.0 1016.9 -36.4
2018-Feb-18 11:40N 70°26' W 102°28'0 0.0 1017.0 -36.4
2018-Feb-18 11:30N 70°26' W 102°28'0 0.0 1016.9 -36.4
2018-Feb-18 11:10N 70°26' W 102°28'7 6.5 1017.0 -36.5
2018-Feb-18 10:10N 70°29' W 102°11'0 0.0 1017.2 -37.0
2018-Feb-18 10:00N 70°29' W 102°11'0 0.0 1017.2 -37.1
2018-Feb-18 09:50N 70°29' W 102°11'0 0.0 1017.4 -37.2
2018-Feb-18 08:30N 70°29' W 102°11'0 0.0 1018.0 -38.7
2018-Feb-18 08:20N 70°29' W 102°11'0 0.0 1018.0 -38.8
2018-Feb-18 07:10N 70°29' W 102°11'0 0.0 1018.0 -39.5
2018-Feb-18 06:50N 70°29' W 102°11'0 0.0 1018.1 -39.5
2018-Feb-18 06:40N 70°29' W 102°11'0 0.0 1018.1 -39.5
2018-Feb-18 06:00N 70°29' W 102°11'0 0.0 1018.5 -39.9
2018-Feb-18 05:30N 70°29' W 102°11'0 0.0 1018.5 -40.2
2018-Feb-18 05:10N 70°29' W 102°11'0 0.0 1018.8 -40.4
2018-Feb-18 05:00N 70°29' W 102°11'0 0.0 1018.8 -40.5
2018-Feb-18 04:50N 70°29' W 102°11'0 0.0 1018.8 -40.5
2018-Feb-18 04:40N 70°29' W 102°11'0 0.0 1018.9 -40.7
2018-Feb-18 04:20N 70°29' W 102°11'0 0.0 1018.9 -41.0
2018-Feb-18 04:10N 70°29' W 102°11'2 5.1 1019.1 -41.2
2018-Feb-18 03:50N 70°28' W 102°14'0 0.0 1019.1 -41.6
2018-Feb-18 03:40N 70°28' W 102°14'0 0.0 1019.2 -41.8
2018-Feb-18 03:30N 70°28' W 102°14'0 0.0 1019.1 -42.0
2018-Feb-18 03:20N 70°28' W 102°14'0 0.0 1019.1 -42.2
2018-Feb-18 03:10N 70°28' W 102°14'0 0.0 1019.1 -42.4
2018-Feb-18 03:00N 70°28' W 102°14'0 0.0 1019.2 -42.5
2018-Feb-18 02:50N 70°28' W 102°14'1 3.8 1019.2 -42.7
2018-Feb-18 02:40N 70°28' W 102°15'211.4 1019.2 -42.8
2018-Feb-18 02:30N 70°26' W 102°13'0 0.0 1019.4 -42.9
2018-Feb-18 02:10N 70°26' W 102°13'0 0.0 1019.1 -43.3
2018-Feb-18 02:00N 70°26' W 102°13'0 0.0 1019.2
2018-Feb-18 01:50N 70°26' W 102°13'0 0.0 1019.2 -43.8
2018-Feb-18 01:40N 70°26' W 102°13'0 0.0 1019.6 -43.9
2018-Feb-18 01:30N 70°26' W 102°13'0 0.0 1019.9 -44.0
2018-Feb-18 01:20N 70°26' W 102°13'0 0.0 1019.8 -44.0
2018-Feb-18 01:10N 70°26' W 102°13'0 0.0 1019.6 -44.1
2018-Feb-18 01:00N 70°26' W 102°13'0 0.0 1019.6 -44.1
2018-Feb-18 00:50N 70°26' W 102°13'0 0.0 1019.8 -44.2
2018-Feb-18 00:30N 70°26' W 102°13'0 0.0 1019.5 -44.0
2018-Feb-18 00:20N 70°26' W 102°13'0 0.0 1019.5 -43.9
2018-Feb-18 00:10N 70°26' W 102°13'0 0.0 1019.6 -43.7
2018-Feb-18 00:00N 70°26' W 102°13'0 0.0 1019.6 -43.4
2018-Feb-17 23:50N 70°26' W 102°13'316.7 1019.6 -43.1
2018-Feb-17 23:40N 70°29' W 102°17'0 0.0 1019.8 -42.8
2018-Feb-17 23:10N 70°29' W 102°17'0 0.0 1019.4 -41.4
2018-Feb-17 22:50N 70°29' W 102°17'0 0.0 1019.2 -40.3
2018-Feb-17 22:40N 70°29' W 102°17'211.4 1019.1 -40.0
2018-Feb-17 22:30N 70°27' W 102°19'0 0.0 1019.1 -39.6
2018-Feb-17 22:20N 70°27' W 102°19'0 0.0 1018.9 -39.4
2018-Feb-17 22:10N 70°27' W 102°19'0 0.0 1018.9 -39.3
2018-Feb-17 22:00N 70°27' W 102°19'0 0.0 1018.9 -39.3
2018-Feb-17 21:30N 70°27' W 102°19'0 0.0 1019.2 -39.4
2018-Feb-17 20:30N 70°27' W 102°19'0 0.0 1018.7 -41.0
2018-Feb-17 20:20N 70°27' W 102°19'0 0.0 1018.3 -41.1
2018-Feb-17 20:00N 70°27' W 102°19'0 0.0 1018.4 -41.8
2018-Feb-17 19:50N 70°27' W 102°19'0 0.0 1018.3 -42.0
2018-Feb-17 18:50N 70°27' W 102°19'0 0.0 1017.7 -44.1
2018-Feb-17 18:40N 70°27' W 102°19'0 0.0 1017.7 -44.4
2018-Feb-17 18:30N 70°27' W 102°19'0 0.0 1017.6 -44.7
2018-Feb-17 18:20N 70°27' W 102°19'0 0.0 1017.4 -45.0
2018-Feb-17 18:10N 70°27' W 102°19'0 0.0 1017.4 -45.3
2018-Feb-17 18:00N 70°27' W 102°19'0 0.0 1017.3 -45.5
2018-Feb-17 17:50N 70°27' W 102°19'1 1.1 1017.3 -45.8
2018-Feb-17 17:10N 70°28' W 102°18'1 7.2 1017.2 -46.8
2018-Feb-17 17:00N 70°29' W 102°18'0 0.0 1017.2 -46.9
2018-Feb-17 16:40N 70°29' W 102°18'0 0.0 1017.0 -47.3
2018-Feb-17 16:30N 70°29' W 102°18'0 0.0 1017.0 -47.5
2018-Feb-17 16:00N 70°29' W 102°18'0 0.0 1016.6 -47.7
2018-Feb-17 15:30N 70°29' W 102°18'0 0.0 1016.3 -47.7
2018-Feb-17 15:20N 70°29' W 102°18'0 0.0 1016.2 -47.6
2018-Feb-17 14:50N 70°29' W 102°18'0 0.0 1016.3 -47.6
2018-Feb-17 14:40N 70°29' W 102°18'1 1.2 1016.2 -47.6
2018-Feb-17 13:50N 70°29' W 102°16'0 0.0 1015.8 -47.4
2018-Feb-17 13:40N 70°29' W 102°16'0 0.0 1015.7 -47.4
2018-Feb-17 13:10N 70°29' W 102°16'0 0.0 1015.4 -47.4
2018-Feb-17 13:00N 70°29' W 102°16'0 0.0 1015.2 -47.4
2018-Feb-17 12:50N 70°29' W 102°16'3 4.3 1015.4 -47.5
2018-Feb-17 12:10N 70°30' W 102°07'0 0.0 1015.1 -47.5
2018-Feb-17 12:00N 70°30' W 102°07'0 0.0 1015.0 -47.5
2018-Feb-17 11:50N 70°30' W 102°07'0 0.0 1015.0 -47.5
2018-Feb-17 11:30N 70°30' W 102°07'0 0.0 1014.7 -47.3
2018-Feb-17 11:20N 70°30' W 102°07'5 5.8 1014.7 -47.3
2018-Feb-17 10:30N 70°27' W 102°19'0 0.0 1014.6 -47.0
2018-Feb-17 10:20N 70°27' W 102°19'0 0.0 1014.6 -46.9
2018-Feb-17 10:10N 70°27' W 102°19'0 0.0 1014.6 -46.9
2018-Feb-17 08:50N 70°27' W 102°19'0 0.0 1013.9 -46.1
2018-Feb-17 08:40N 70°27' W 102°19'0 0.0 1013.6 -45.9
2018-Feb-17 07:30N 70°27' W 102°19'0 0.0 1012.9 -44.8
2018-Feb-17 07:20N 70°27' W 102°19'0 0.0 1012.9 -44.8
2018-Feb-17 07:10N 70°27' W 102°19'0 0.0 1012.9 -44.6
2018-Feb-17 06:10N 70°27' W 102°19'0 0.0 1012.6 -43.4
2018-Feb-17 05:50N 70°27' W 102°19'0 0.0 1012.6 -42.9
2018-Feb-17 05:40N 70°27' W 102°19'0 0.0 1012.5 -42.6
2018-Feb-17 05:30N 70°27' W 102°19'0 0.0 1012.5 -42.4
2018-Feb-17 05:10N 70°27' W 102°19'211.8 1012.4 -42.0
2018-Feb-17 05:00N 70°29' W 102°21'0 0.0 1012.2 -41.8
2018-Feb-17 04:30N 70°29' W 102°21'1 3.0 1011.8 -41.1
2018-Feb-17 04:10N 70°28' W 102°19'1 4.3 1011.7 -40.7
2018-Feb-17 04:00N 70°28' W 102°17'0 0.0 1011.7 -40.5
2018-Feb-17 03:50N 70°28' W 102°17'1 2.5 1011.7 -40.3
2018-Feb-17 03:30N 70°28' W 102°16'0 0.0 1011.6 -40.3
2018-Feb-17 03:20N 70°28' W 102°16'0 0.8 1011.4 -40.3
2018-Feb-17 02:50N 70°28' W 102°17'1 3.6 1011.1 -40.8
2018-Feb-17 02:40N 70°28' W 102°19'0 0.0 1011.1 -41.0
2018-Feb-17 02:30N 70°28' W 102°19'0 0.0 1011.1 -41.1
2018-Feb-17 02:20N 70°28' W 102°19'0 0.0 1010.9 -41.3
2018-Feb-17 02:10N 70°28' W 102°19'2 7.2 1010.9 -41.6
2018-Feb-17 01:50N 70°26' W 102°14'0 0.0 1010.6 -41.9
2018-Feb-17 01:40N 70°26' W 102°14'0 0.0 1010.6 -42.1
2018-Feb-17 01:10N 70°26' W 102°14'0 0.0 1010.3 -42.5
2018-Feb-17 01:00N 70°26' W 102°14'0 0.0 1010.3 -42.7
2018-Feb-17 00:50N 70°26' W 102°14'0 0.0 1010.2 -42.9
2018-Feb-17 00:40N 70°26' W 102°14'0 0.0 1010.3 -42.9
2018-Feb-17 00:30N 70°26' W 102°14'0 0.0 1010.0 -42.9
2018-Feb-17 00:10N 70°26' W 102°14'0 0.0 1009.9 -42.5
2018-Feb-17 00:00N 70°26' W 102°14'0 0.0 1009.8 -42.4
2018-Feb-16 23:50N 70°26' W 102°14'0 0.0 1009.6 -42.2
2018-Feb-16 23:30N 70°26' W 102°14'0 0.0 1009.5 -41.8
2018-Feb-16 23:20N 70°26' W 102°14'0 0.0 1009.4 -41.6
2018-Feb-16 23:10N 70°26' W 102°14'213.7 1009.4 -41.3
2018-Feb-16 23:00N 70°28' W 102°18'0 0.0 1009.4 -41.0
2018-Feb-16 22:50N 70°28' W 102°18'0 0.0 1009.4 -40.8
2018-Feb-16 22:30N 70°28' W 102°18'0 1.2 1009.1 -40.5
2018-Feb-16 22:20N 70°28' W 102°17'211.1 1009.0 -40.4
2018-Feb-16 22:10N 70°27' W 102°22'0 0.0 1009.0 -40.4
2018-Feb-16 21:50N 70°27' W 102°22'426.2 1008.8 -40.2
2018-Feb-16 21:40N 70°31' W 102°25'0 0.0 1008.7 -39.9
2018-Feb-16 21:20N 70°31' W 102°25'0 0.0
2018-Feb-16 21:10N 70°31' W 102°25'0 0.0 1008.0 -39.6
2018-Feb-16 20:50N 70°31' W 102°25'424.2 1007.7 -39.7
2018-Feb-16 20:40N 70°28' W 102°20'0 0.0 1007.6 -39.9
2018-Feb-16 20:30N 70°28' W 102°20'0 0.0 1007.4 -40.0
2018-Feb-16 20:10N 70°28' W 102°20'0 0.0 1007.6 -40.2
2018-Feb-16 20:00N 70°28' W 102°20'424.2 1007.4 -40.2
2018-Feb-16 19:50N 70°31' W 102°25'4 6.0 1007.3 -40.3
2018-Feb-16 19:10N 70°28' W 102°20'0 0.0 1006.9 -40.5
2018-Feb-16 19:00N 70°28' W 102°20'1 3.8 1006.8 -40.5
2018-Feb-16 18:50N 70°28' W 102°19'0 0.0 1006.6 -40.6
2018-Feb-16 18:30N 70°28' W 102°19'0 0.0 1006.5 -40.7
2018-Feb-16 18:20N 70°28' W 102°19'2 2.4 1006.4 -40.7
2018-Feb-16 17:30N 70°27' W 102°14'2 9.6 1006.1 -40.5
2018-Feb-16 17:20N 70°27' W 102°19'1 5.1 1005.8 -40.6
2018-Feb-16 17:10N 70°28' W 102°17'0 0.0 1005.7 -40.7
2018-Feb-16 16:50N 70°28' W 102°17'211.4 1005.5 -41.0
2018-Feb-16 16:40N 70°28' W 102°23'0 0.0 1005.4 -41.2
2018-Feb-16 16:00N 70°28' W 102°23'529.1 1004.7 -42.1
2018-Feb-16 15:50N 70°29' W 102°08'0 0.0 1004.6 -42.2
2018-Feb-16 15:40N 70°29' W 102°08'0 0.0 1004.7 -42.2
2018-Feb-16 15:30N 70°29' W 102°08'0 0.0 1004.7 -42.2
2018-Feb-16 15:10N 70°29' W 102°08'0 0.0 1004.6 -42.1
2018-Feb-16 15:00N 70°29' W 102°08'0 0.0 1004.4 -42.0
2018-Feb-16 14:50N 70°29' W 102°08'0 0.0 1004.2 -41.9
2018-Feb-16 14:20N 70°29' W 102°08'0 0.0 1003.5 -41.4
2018-Feb-16 14:10N 70°29' W 102°08'212.6 1003.6 -41.1
2018-Feb-16 14:00N 70°28' W 102°14'0 0.0 1003.6 -41.0
2018-Feb-16 13:50N 70°28' W 102°14'1 1.7 1003.5 -40.7
2018-Feb-16 13:20N 70°29' W 102°16'2 3.6 1003.2 -39.9
2018-Feb-16 12:40N 70°27' W 102°21'0 0.0 1002.9 -39.5
2018-Feb-16 12:30N 70°27' W 102°21'0 0.0 1002.9 -39.5
2018-Feb-16 12:20N 70°27' W 102°21'0 0.0 1002.8 -39.5
2018-Feb-16 12:10N 70°27' W 102°21'0 0.0 1002.7 -39.6
2018-Feb-16 11:40N 70°27' W 102°21'0 0.0 1002.4 -40.0
2018-Feb-16 11:10N 70°27' W 102°21'210.2 1002.1 -40.4
2018-Feb-16 11:00N 70°28' W 102°17'310.3 1002.1 -40.6
2018-Feb-16 10:40N 70°29' W 102°27'0 0.0 1001.8 -40.9
2018-Feb-16 10:30N 70°29' W 102°27'0 0.0 1001.8 -41.0
2018-Feb-16 09:30N 70°29' W 102°27'0 0.0 -42.0
2018-Feb-16 09:20N 70°29' W 102°27'0 0.0 1001.0 -42.1
2018-Feb-16 08:50N 70°29' W 102°27'0 0.0 1000.7 -42.0
2018-Feb-16 08:00N 70°29' W 102°27'0 0.0 1000.1 -41.6
2018-Feb-16 07:50N 70°29' W 102°27'0 0.0 1000.1 -41.4
2018-Feb-16 07:40N 70°29' W 102°27'0 0.0 1000.2 -41.3
2018-Feb-16 07:10N 70°29' W 102°27'0 0.0 999.8 -41.0
2018-Feb-16 07:00N 70°29' W 102°27'0 0.0 999.6
2018-Feb-16 06:10N 70°29' W 102°27'0 0.0 999.0 -40.3
2018-Feb-16 06:00N 70°29' W 102°27'0 0.0 998.8 -40.2
2018-Feb-16 05:30N 70°29' W 102°27'0 0.0 998.7 -39.8
2018-Feb-16 04:40N 70°29' W 102°27'0 0.0 998.6 -39.2
2018-Feb-16 04:30N 70°29' W 102°27'0 0.0 998.7 -39.0
2018-Feb-16 04:20N 70°29' W 102°27'0 0.0 998.6 -38.8
2018-Feb-16 03:50N 70°29' W 102°27'318.8 998.1 -38.2
2018-Feb-16 03:40N 70°27' W 102°21'0 0.0 998.0 -38.0
2018-Feb-16 03:00N 70°27' W 102°21'211.1 998.0 -36.7
2018-Feb-16 02:50N 70°28' W 102°17'211.1 997.7 -36.5
2018-Feb-16 02:40N 70°27' W 102°21'1 2.7 997.7 -36.2
2018-Feb-16 02:10N 70°28' W 102°19'1 3.6 998.0 -35.4
2018-Feb-16 02:00N 70°28' W 102°17'0 0.0 998.0 -35.3
2018-Feb-16 01:50N 70°28' W 102°17'0 0.0 997.9 -35.2
2018-Feb-16 01:20N 70°28' W 102°17'0 1.2 998.0 -35.3
2018-Feb-16 01:10N 70°28' W 102°18'0 0.0 998.0 -35.4
2018-Feb-16 01:00N 70°28' W 102°18'0 0.0 998.1 -35.4
2018-Feb-16 00:30N 70°28' W 102°18'0 0.0 998.3 -35.2
2018-Feb-16 00:20N 70°28' W 102°18'0 0.0 998.3 -35.1
2018-Feb-16 00:10N 70°28' W 102°18'0 0.4 998.3 -35.1
2018-Feb-15 23:40N 70°28' W 102°19'1 3.6 998.6 -34.9
2018-Feb-15 23:30N 70°28' W 102°19'1 3.8 998.6 -34.9
2018-Feb-15 23:20N 70°28' W 102°19'0 0.8 998.6 -35.0
2018-Feb-15 22:50N 70°28' W 102°20'1 7.2 998.8 -34.9
2018-Feb-15 22:40N 70°28' W 102°17'0 0.0 999.0 -34.8
2018-Feb-15 22:30N 70°28' W 102°17'1 7.2 998.8 -34.8
2018-Feb-15 22:20N 70°28' W 102°20'0 0.0 999.0 -34.7
2018-Feb-15 22:00N 70°28' W 102°20'0 0.0 999.0 -34.7
2018-Feb-15 21:50N 70°28' W 102°20'211.4 999.0 -34.7
2018-Feb-15 21:40N 70°26' W 102°19'1 2.5 999.0 -34.7
2018-Feb-15 21:10N 70°28' W 102°20'1 3.8 999.4 -34.7
2018-Feb-15 21:00N 70°28' W 102°19'0 0.0 -34.5
2018-Feb-15 20:50N 70°28' W 102°19'0 0.0 999.2 -34.5
2018-Feb-15 20:40N 70°28' W 102°19'0 0.0 999.2 -34.5
2018-Feb-15 20:20N 70°28' W 102°19'0 0.0 999.2 -34.7
2018-Feb-15 20:10N 70°28' W 102°19'0 0.0 999.1 -35.0
2018-Feb-15 19:30N 70°28' W 102°19'0 0.0 999.2 -35.9
2018-Feb-15 19:20N 70°28' W 102°19'1 3.6 999.2 -35.9
2018-Feb-15 19:10N 70°28' W 102°19'1 4.3 999.4 -35.9
2018-Feb-15 19:00N 70°28' W 102°18'0 0.0 999.2 -35.9
2018-Feb-15 18:40N 70°28' W 102°18'0 1.2 999.4 -36.1
2018-Feb-15 18:30N 70°28' W 102°17'0 0.3 999.4 -36.2
2018-Feb-15 17:50N 70°28' W 102°18'0 0.0 999.6 -36.2
2018-Feb-15 17:40N 70°28' W 102°18'0 0.0
2018-Feb-15 17:30N 70°28' W 102°18'1 6.0 999.9 -35.9
2018-Feb-15 17:20N 70°28' W 102°16'0 0.0 1000.2 -35.7
2018-Feb-15 17:00N 70°28' W 102°16'1 8.7 1000.3 -35.6
2018-Feb-15 16:50N 70°29' W 102°18'1 1.8 1000.3 -35.5
2018-Feb-15 16:10N 70°28' W 102°17'1 6.0 1000.5 -35.7
2018-Feb-15 16:00N 70°28' W 102°20'1 7.0 1000.5 -35.7
2018-Feb-15 15:50N 70°27' W 102°17'0 0.0 1000.5 -35.8
2018-Feb-15 15:40N 70°27' W 102°17'1 1.8 1000.6 -35.8
2018-Feb-15 15:20N 70°28' W 102°17'0 0.0 1000.6 -35.9
2018-Feb-15 15:10N 70°28' W 102°17'0 0.0 1000.6 -35.8
2018-Feb-15 14:50N 70°28' W 102°17'2 5.7 1000.9 -35.7
2018-Feb-15 14:30N 70°27' W 102°23'2 4.6 1001.2 -35.7
2018-Feb-15 14:10N 70°28' W 102°19'0 0.0 1001.2 -35.9
2018-Feb-15 14:00N 70°28' W 102°19'1 2.0 1001.3 -36.0
2018-Feb-15 13:30N 70°28' W 102°21'1 3.6 1001.6 -36.6
2018-Feb-15 13:10N 70°28' W 102°17'1 2.5 1001.7 -37.1
2018-Feb-15 12:50N 70°29' W 102°16'1 5.1 1001.7 -37.4
2018-Feb-15 12:40N 70°28' W 102°17'1 5.1 1001.8 -37.4
2018-Feb-15 12:30N 70°29' W 102°16'0 0.0 1002.0 -37.4
2018-Feb-15 12:20N 70°29' W 102°16'0 0.0 1002.0 -37.3
2018-Feb-15 11:50N 70°29' W 102°16'0 0.0 1001.8 -37.4
2018-Feb-15 11:40N 70°29' W 102°16'1 4.3 1001.8 -37.4
2018-Feb-15 11:30N 70°28' W 102°14'0 0.0 1002.0 -37.4
2018-Feb-15 11:10N 70°28' W 102°14'0 0.0 1002.1 -37.4
2018-Feb-15 11:00N 70°28' W 102°14'2 9.6 1002.2 -37.2
2018-Feb-15 10:50N 70°28' W 102°19'0 0.0 1002.2 -37.0
2018-Feb-15 10:40N 70°28' W 102°19'0 0.3 1002.2 -36.8
2018-Feb-15 10:00N 70°28' W 102°19'0 0.0 1002.7 -36.3
2018-Feb-15 09:50N 70°28' W 102°19'1 1.4 1002.8 -36.2
2018-Feb-15 09:00N 70°28' W 102°22'1 0.9 1003.1 -35.9
2018-Feb-15 08:20N 70°28' W 102°20'0 0.0 1003.3 -36.0
2018-Feb-15 08:10N 70°28' W 102°20'1 0.7 1003.2 -36.1
2018-Feb-15 07:20N 70°28' W 102°22'2 3.6 1003.1 -36.7
2018-Feb-15 06:40N 70°28' W 102°14'1 5.1 1002.9 -37.0
2018-Feb-15 06:30N 70°27' W 102°16'0 0.0 1003.1 -37.1
2018-Feb-15 05:50N 70°27' W 102°16'0 0.0 1003.2 -37.1
2018-Feb-15 05:00N 70°27' W 102°16'210.8 1003.5 -37.4
2018-Feb-15 04:50N 70°29' W 102°16'0 0.0 1003.6 -37.4
2018-Feb-15 04:10N 70°29' W 102°16'1 4.3 1003.8 -37.8
2018-Feb-15 04:00N 70°28' W 102°17'0 0.0 1004.0 -37.9
2018-Feb-15 03:20N 70°28' W 102°17'0 1.2 1004.0 -38.5
2018-Feb-15 03:10N 70°28' W 102°18'1 4.8 1004.0 -38.6
2018-Feb-15 03:00N 70°28' W 102°20'2 4.2 1004.2 -38.8
2018-Feb-15 02:30N 70°28' W 102°14'0 0.0 1003.9 -39.0
2018-Feb-15 02:20N 70°28' W 102°14'0 0.0 1004.0 -39.0
2018-Feb-15 02:00N 70°28' W 102°14'0 0.0 1003.9 -39.0
2018-Feb-15 01:40N 70°28' W 102°14'2 9.2 1003.8 -39.0
2018-Feb-15 01:30N 70°28' W 102°19'0 0.0 1003.8 -39.0
2018-Feb-15 01:20N 70°28' W 102°19'1 1.6 1003.8 -38.9
2018-Feb-15 00:50N 70°28' W 102°16'2 9.6 1003.8 -38.8
2018-Feb-15 00:40N 70°28' W 102°21'1 4.3 1004.0 -38.7
2018-Feb-15 00:20N 70°27' W 102°19'2 5.1 1004.2 -38.6
2018-Feb-15 00:00N 70°28' W 102°15'0 2.4 1003.9 -38.6
2018-Feb-14 23:50N 70°28' W 102°16'0 1.2 1003.9 -38.6
2018-Feb-14 23:40N 70°28' W 102°17'0 0.8 1003.8 -38.5
2018-Feb-14 23:10N 70°28' W 102°18'0 0.0 1004.0 -38.4
2018-Feb-14 23:00N 70°28' W 102°18'0 0.0 1004.0 -38.3
2018-Feb-14 22:40N 70°28' W 102°18'0 1.2 1004.0 -38.2
2018-Feb-14 22:30N 70°28' W 102°19'0 0.0 1004.2 -38.1
2018-Feb-14 22:20N 70°28' W 102°19'0 0.0 1004.2 -38.1
2018-Feb-14 22:10N 70°28' W 102°19'1 3.8 1004.2 -38.1
2018-Feb-14 22:00N 70°28' W 102°18'1 1.3 1004.2 -38.0
2018-Feb-14 21:30N 70°27' W 102°17'1 3.6 1004.0 -38.0
2018-Feb-14 21:20N 70°26' W 102°17'0 0.0 1004.0
2018-Feb-14 21:00N 70°26' W 102°17'0 0.0 1004.0 -38.1
2018-Feb-14 20:50N 70°26' W 102°17'0 0.0 1003.6 -38.1
2018-Feb-14 20:30N 70°26' W 102°17'0 0.0 1003.5 -38.0
2018-Feb-14 20:20N 70°26' W 102°17'1 2.9 1003.3 -38.1
2018-Feb-14 19:50N 70°28' W 102°20'0 0.0 1003.1 -38.3
2018-Feb-14 19:20N 70°28' W 102°20'1 3.6 1003.3 -38.7
2018-Feb-14 19:10N 70°28' W 102°18'1 3.6 1003.2 -38.8
2018-Feb-14 19:00N 70°28' W 102°16'1 3.6 1003.2 -39.0
2018-Feb-14 18:50N 70°28' W 102°18'0 0.0 1003.3 -39.1
2018-Feb-14 18:40N 70°28' W 102°18'2 7.0 1003.2 -39.3
2018-Feb-14 18:20N 70°29' W 102°12'0 0.0 1003.3 -39.5
2018-Feb-14 18:10N 70°29' W 102°12'0 0.0 1003.2 -39.5
2018-Feb-14 17:40N 70°29' W 102°12'0 0.0 1003.2 -39.7
2018-Feb-14 17:30N 70°29' W 102°12'0 0.0 1003.1 -39.7
2018-Feb-14 17:10N 70°29' W 102°12'0 0.0 1002.9 -39.6
2018-Feb-14 17:00N 70°29' W 102°12'0 0.0 1002.8 -39.6
2018-Feb-14 16:40N 70°29' W 102°12'0 0.0 1002.8 -39.8
2018-Feb-14 16:30N 70°29' W 102°12'0 0.0 1002.8 -39.9
2018-Feb-14 16:00N 70°29' W 102°12'0 0.0 1002.5 -39.7
2018-Feb-14 15:50N 70°29' W 102°12'0 0.0 1002.5 -39.7
2018-Feb-14 15:30N 70°29' W 102°12'0 0.0 1002.4 -39.8
2018-Feb-14 15:20N 70°29' W 102°12'0 0.0 1002.2 -39.8
2018-Feb-14 14:50N 70°29' W 102°12'0 0.0 1002.4 -39.5
2018-Feb-14 14:20N 70°29' W 102°12'0 0.0 1002.4 -39.1
2018-Feb-14 14:10N 70°29' W 102°12'0 0.0 1002.4 -39.0
2018-Feb-14 13:50N 70°29' W 102°12'0 0.0 1002.4 -38.8
2018-Feb-14 13:40N 70°29' W 102°12'0 0.0 1002.5 -38.8
2018-Feb-14 13:10N 70°29' W 102°12'0 0.0 1002.4 -38.3
2018-Feb-14 12:40N 70°29' W 102°12'0 0.0 1002.4 -37.7
2018-Feb-14 12:30N 70°29' W 102°12'0 0.0 1002.5 -37.5
2018-Feb-14 12:10N 70°29' W 102°12'0 0.0 1002.5 -37.0
2018-Feb-14 12:00N 70°29' W 102°12'0 0.0 1002.8 -36.7
2018-Feb-14 11:30N 70°29' W 102°12'2 4.0 1003.2 -35.9
2018-Feb-14 11:00N 70°29' W 102°18'0 0.0 1003.2 -35.7
2018-Feb-14 10:50N 70°29' W 102°18'1 3.6 1003.2 -35.8
2018-Feb-14 10:30N 70°28' W 102°17'1 8.1 1003.2 -35.7
2018-Feb-14 10:20N 70°29' W 102°16'0 0.0 1003.2 -35.6
2018-Feb-14 09:20N 70°29' W 102°16'0 0.0 1004.2 -35.1
2018-Feb-14 09:10N 70°29' W 102°16'1 2.2 1004.3 -34.9
2018-Feb-14 08:50N 70°28' W 102°17'0 0.0 1004.4 -34.5
2018-Feb-14 08:40N 70°28' W 102°17'1 0.7 1004.6 -34.4
2018-Feb-14 07:30N 70°28' W 102°19'0 0.0
2018-Feb-14 07:10N 70°28' W 102°19'1 6.0 1005.5 -32.9
2018-Feb-14 07:00N 70°28' W 102°16'0 0.0 1005.7 -32.9
2018-Feb-14 06:50N 70°28' W 102°16'1 1.9 1005.7 -32.8
2018-Feb-14 06:10N 70°26' W 102°17'0 0.0 1005.5 -32.3
2018-Feb-14 05:30N 70°26' W 102°17'2 9.4 1005.9 -32.2
2018-Feb-14 05:20N 70°28' W 102°14'0 0.0 1006.2 -32.4
2018-Feb-14 05:10N 70°28' W 102°14'211.1 1006.5 -32.6
2018-Feb-14 05:00N 70°29' W 102°18'0 0.0 1006.8 -32.8
2018-Feb-14 04:30N 70°29' W 102°18'1 7.2 1007.2 -32.8
2018-Feb-14 04:20N 70°29' W 102°14'0 0.0 -32.8
2018-Feb-14 03:50N 70°29' W 102°14'0 0.0 1007.4 -32.9
2018-Feb-14 03:40N 70°29' W 102°14'0 0.0 1007.4 -33.0
2018-Feb-14 03:30N 70°29' W 102°14'1 3.8 1007.6 -33.1
2018-Feb-14 03:20N 70°28' W 102°14'0 0.0 1007.7 -33.4
2018-Feb-14 03:00N 70°28' W 102°14'1 6.0 1008.1 -33.9
2018-Feb-14 02:50N 70°28' W 102°17'0 0.0 1008.3 -34.1
2018-Feb-14 02:40N 70°28' W 102°17'0 0.0 1008.4 -34.4
2018-Feb-14 02:10N 70°28' W 102°17'1 6.0
2018-Feb-14 02:00N 70°28' W 102°19'1 6.0 1009.0 -35.3
2018-Feb-14 01:50N 70°28' W 102°17'0 0.0 1009.2 -35.3
2018-Feb-14 01:40N 70°28' W 102°17'0 2.4 1009.2 -35.2
2018-Feb-14 01:30N 70°28' W 102°16'0 1.2 1009.5 -35.1
2018-Feb-14 01:20N 70°28' W 102°16'1 6.0 1009.6 -35.1
2018-Feb-14 01:10N 70°28' W 102°19'2 9.2 1009.6 -35.0
2018-Feb-14 01:00N 70°28' W 102°15'1 2.7 1009.8 -35.0
2018-Feb-14 00:30N 70°28' W 102°19'0 0.0 1010.2 -35.2
2018-Feb-14 00:10N 70°28' W 102°19'1 5.1 1010.5 -35.2
2018-Feb-14 00:00N 70°28' W 102°20'1 7.3 1010.5 -35.2
2018-Feb-13 23:50N 70°29' W 102°20'0 0.0 1010.6 -35.1
2018-Feb-13 23:40N 70°29' W 102°20'0 0.0 1010.7 -35.1
2018-Feb-13 23:30N 70°29' W 102°20'2 2.4 1010.7 -35.1
2018-Feb-13 22:50N 70°29' W 102°15'2 9.4 1011.1 -35.1
2018-Feb-13 22:40N 70°28' W 102°18'0 0.0 1011.1
2018-Feb-13 22:30N 70°28' W 102°18'0 0.0 1011.0 -35.1
2018-Feb-13 22:20N 70°28' W 102°18'0 0.0 1011.0 -35.0
2018-Feb-13 22:10N 70°28' W 102°18'0 0.0 1011.0 -35.0
2018-Feb-13 22:00N 70°28' W 102°18'0 0.0 1011.0 -35.0
2018-Feb-13 21:50N 70°28' W 102°18'0 0.0 1011.1 -35.0
2018-Feb-13 21:10N 70°28' W 102°18'0 0.0 1011.1 -34.8
2018-Feb-13 21:00N 70°28' W 102°18'0 0.0 1011.1 -34.8
2018-Feb-13 20:50N 70°28' W 102°18'1 3.6 1011.3 -35.0
2018-Feb-13 20:40N 70°28' W 102°20'0 0.0 1011.1 -35.1
2018-Feb-13 20:30N 70°28' W 102°20'0 0.0 1011.0 -35.2
2018-Feb-13 20:20N 70°28' W 102°20'0 0.0 1010.9 -35.5
2018-Feb-13 20:10N 70°28' W 102°20'0 0.0 1010.9 -35.9
2018-Feb-13 19:30N 70°28' W 102°20'0 0.0 1010.9 -37.5
2018-Feb-13 19:20N 70°28' W 102°20'0 0.0 1010.9 -37.6
2018-Feb-13 19:00N 70°28' W 102°20'0 0.0 1011.1 -38.2
2018-Feb-13 18:50N 70°28' W 102°20'1 3.6 1011.1 -38.6
2018-Feb-13 18:40N 70°28' W 102°18'0 0.0 1011.1 -38.8
2018-Feb-13 18:30N 70°28' W 102°18'1 0.9 1011.3 -38.9
2018-Feb-13 17:50N 70°28' W 102°18'0 0.0 1011.4 -39.7
2018-Feb-13 17:40N 70°28' W 102°18'0 0.6 1011.3 -39.9
2018-Feb-13 17:20N 70°28' W 102°17'0 0.0 1011.4 -40.3
2018-Feb-13 17:10N 70°28' W 102°17'214.9 1011.4 -40.4
2018-Feb-13 17:00N 70°29' W 102°10'0 0.0 1011.6 -40.7
2018-Feb-13 16:50N 70°29' W 102°10'0 0.0 1011.7 -40.8
2018-Feb-13 16:10N 70°29' W 102°10'0 0.0 1011.4 -41.0
2018-Feb-13 16:00N 70°29' W 102°10'320.8 1011.4
2018-Feb-13 15:50N 70°28' W 102°20'211.1 1011.3 -40.5
2018-Feb-13 15:40N 70°29' W 102°16'0 0.0 1011.1 -40.3
2018-Feb-13 15:30N 70°29' W 102°16'0 0.0 1011.3 -40.2
2018-Feb-13 15:20N 70°29' W 102°16'0 0.0 1011.4 -40.2
2018-Feb-13 15:10N 70°29' W 102°16'0 0.0 1011.3 -40.1
2018-Feb-13 14:30N 70°29' W 102°16'0 0.0 1011.0 -39.5
2018-Feb-13 14:20N 70°29' W 102°16'0 0.0 1010.9 -39.5
2018-Feb-13 14:10N 70°29' W 102°16'0 0.0 1010.5 -39.5
2018-Feb-13 14:00N 70°29' W 102°16'0 0.0 1010.3 -39.3
2018-Feb-13 13:50N 70°29' W 102°16'211.8 1010.3 -39.1
2018-Feb-13 13:40N 70°28' W 102°14'1 1.5 1010.3 -39.0
2018-Feb-13 12:50N 70°29' W 102°13'0 0.0 1009.9 -38.5
2018-Feb-13 12:40N 70°29' W 102°13'0 0.0 1010.0 -38.5
2018-Feb-13 12:30N 70°29' W 102°13'0 0.0 1009.9 -38.4
2018-Feb-13 12:10N 70°29' W 102°13'213.2 1009.8 -38.3
2018-Feb-13 12:00N 70°29' W 102°19'212.6 1009.8 -38.2
2018-Feb-13 11:50N 70°28' W 102°13'2 3.1 1009.8 -38.0
2018-Feb-13 11:10N 70°29' W 102°19'0 0.0 1009.4 -38.0
2018-Feb-13 11:00N 70°29' W 102°19'214.4 1009.2 -37.9
2018-Feb-13 10:50N 70°29' W 102°12'0 0.0 1009.1 -37.8
2018-Feb-13 10:20N 70°29' W 102°12'2 9.2 1008.8 -37.4
2018-Feb-13 10:10N 70°28' W 102°16'2 3.4 1008.8 -37.3
2018-Feb-13 09:30N 70°30' W 102°12'0 0.0 1008.5 -36.8
2018-Feb-13 09:20N 70°30' W 102°12'315.3 1008.4 -36.8
2018-Feb-13 09:10N 70°28' W 102°17'3 1.7 1008.3 -36.9
2018-Feb-13 07:40N 70°30' W 102°12'1 8.7 1007.0 -37.6
2018-Feb-13 07:30N 70°29' W 102°14'320.8 1006.8 -37.5
2018-Feb-13 07:20N 70°29' W 102°25'0 0.0 1006.6 -37.4
2018-Feb-13 07:10N 70°29' W 102°25'2 1.5
2018-Feb-13 06:00N 70°29' W 102°19'0 0.0 1005.5 -36.3
2018-Feb-13 05:50N 70°29' W 102°19'1 7.0
2018-Feb-13 05:40N 70°29' W 102°22'0 0.0 1005.1 -36.2
2018-Feb-13 05:30N 70°29' W 102°22'1 3.8 1005.0 -35.9
2018-Feb-13 05:20N 70°29' W 102°23'2 4.6 1004.7 -36.1
2018-Feb-13 04:50N 70°28' W 102°19'1 2.0 1004.3 -36.0
2018-Feb-13 04:20N 70°28' W 102°22'0 0.0 1004.0 -35.9
2018-Feb-13 04:00N 70°28' W 102°22'0 0.0 1003.9 -35.7
2018-Feb-13 03:50N 70°28' W 102°22'0 1.2 1003.9 -35.7
2018-Feb-13 03:40N 70°28' W 102°21'1 3.8 1003.8 -35.6
2018-Feb-13 03:30N 70°27' W 102°20'0 0.0 1003.6 -35.5
2018-Feb-13 03:20N 70°27' W 102°20'212.0 1003.3 -35.5
2018-Feb-13 03:10N 70°28' W 102°16'1 8.1 1003.2 -35.4
2018-Feb-13 03:00N 70°28' W 102°19'0 0.0 -35.4
2018-Feb-13 02:50N 70°28' W 102°19'0 0.0 1002.8 -35.3
2018-Feb-13 02:40N 70°28' W 102°19'0 0.0 1002.7 -35.3
2018-Feb-13 02:10N 70°28' W 102°19'0 0.0 1002.4 -35.1
2018-Feb-13 01:50N 70°28' W 102°19'0 2.4 1002.0 -35.1
2018-Feb-13 01:40N 70°28' W 102°20'1 3.8 1002.0 -35.1
2018-Feb-13 01:30N 70°27' W 102°21'0 0.0 1001.7 -35.1
2018-Feb-13 01:20N 70°27' W 102°21'0 0.0 -35.1
2018-Feb-13 01:10N 70°27' W 102°21'0 0.0 1001.7 -35.1
2018-Feb-13 01:00N 70°27' W 102°21'0 0.0 -35.1
2018-Feb-13 00:50N 70°27' W 102°21'0 0.0 1001.4 -35.1
2018-Feb-13 00:40N 70°27' W 102°21'315.3 1001.4 -35.1
2018-Feb-13 00:30N 70°29' W 102°16'1 1.8 1001.2 -35.0
2018-Feb-13 00:10N 70°28' W 102°16'0 0.0 1000.9 -34.7
2018-Feb-13 00:00N 70°28' W 102°16'0 0.0 1000.6 -34.6
2018-Feb-12 23:50N 70°28' W 102°16'2 3.4 1000.5 -34.4
2018-Feb-12 23:20N 70°28' W 102°20'1 4.0 1000.2
2018-Feb-12 23:00N 70°27' W 102°17'0 0.0 1000.1 -33.8
2018-Feb-12 22:50N 70°27' W 102°17'1 3.6 999.8 -33.6
2018-Feb-12 22:30N 70°28' W 102°16'0 1.2 999.4 -33.4
2018-Feb-12 22:20N 70°28' W 102°17'0 0.0 999.2 -33.1
2018-Feb-12 22:10N 70°28' W 102°17'0 0.0 999.0 -32.9
2018-Feb-12 21:40N 70°28' W 102°17'0 0.6 998.4 -32.6
2018-Feb-12 21:20N 70°28' W 102°17'0 0.0 998.3 -32.4
2018-Feb-12 21:10N 70°28' W 102°17'0 0.0 998.3
2018-Feb-12 20:50N 70°28' W 102°17'0 2.4 998.0 -32.2
2018-Feb-12 20:40N 70°28' W 102°19'0 2.4 997.9 -32.2
2018-Feb-12 20:30N 70°28' W 102°17'0 0.0 997.7 -32.2
2018-Feb-12 19:40N 70°28' W 102°17'0 0.0 996.9 -32.2
2018-Feb-12 19:30N 70°28' W 102°17'0 0.0 996.9 -32.2
2018-Feb-12 19:10N 70°28' W 102°17'0 0.0 996.8 -32.3
2018-Feb-12 19:00N 70°28' W 102°17'0 2.4 996.6 -32.4
2018-Feb-12 18:50N 70°28' W 102°16'1 0.7 996.5 -32.5
2018-Feb-12 18:00N 70°29' W 102°16'1 7.6 995.7 -33.8
2018-Feb-12 17:50N 70°28' W 102°15'0 0.0 995.5 -34.1
2018-Feb-12 17:30N 70°28' W 102°15'211.1 995.4 -34.2
2018-Feb-12 17:20N 70°29' W 102°19'1 4.3 995.4 -34.1
2018-Feb-12 17:10N 70°29' W 102°18'0 0.0 995.3 -34.1
2018-Feb-12 16:30N 70°29' W 102°18'0 0.0 995.1 -33.6
2018-Feb-12 16:20N 70°29' W 102°18'1 7.0 995.1 -33.4
2018-Feb-12 16:10N 70°29' W 102°21'0 0.0
2018-Feb-12 15:50N 70°29' W 102°21'0 0.0 995.1 -32.6
2018-Feb-12 15:40N 70°29' W 102°21'1 5.1 995.0 -32.2
2018-Feb-12 15:30N 70°28' W 102°19'0 0.0 995.0 -32.1
2018-Feb-12 14:50N 70°28' W 102°19'1 3.6 995.3 -31.1
2018-Feb-12 14:40N 70°28' W 102°17'0 0.0 995.4 -30.8
2018-Feb-12 14:30N 70°28' W 102°17'0 0.6 995.4
2018-Feb-12 14:10N 70°28' W 102°18'0 0.0 995.3 -29.7
2018-Feb-12 14:00N 70°28' W 102°18'0 0.0 995.1 -29.2
2018-Feb-12 13:50N 70°28' W 102°18'0 0.0 995.0 -28.9
2018-Feb-12 13:10N 70°28' W 102°18'0 0.0 994.7 -27.5
2018-Feb-12 13:00N 70°28' W 102°18'0 0.0 995.0 -27.3
2018-Feb-12 12:50N 70°28' W 102°18'0 0.0 995.1 -27.0
2018-Feb-12 12:30N 70°28' W 102°18'0 0.0 995.0 -26.8
2018-Feb-12 12:20N 70°28' W 102°18'0 0.0 995.1 -26.5
2018-Feb-12 11:30N 70°28' W 102°18'0 0.0 995.4 -26.1
2018-Feb-12 11:20N 70°28' W 102°18'0 0.0 995.3 -26.1
2018-Feb-12 11:10N 70°28' W 102°18'0 0.0 995.5 -26.1
2018-Feb-12 10:40N 70°28' W 102°18'0 0.0 995.5 -26.2
2018-Feb-12 09:50N 70°28' W 102°18'0 0.0 995.8 -26.4
2018-Feb-12 09:40N 70°28' W 102°18'0 0.0 995.8 -26.4
2018-Feb-12 09:30N 70°28' W 102°18'0 0.0 996.1 -26.3
2018-Feb-12 08:10N 70°28' W 102°18'0 0.0 996.5 -26.4
2018-Feb-12 08:00N 70°28' W 102°18'0 0.0 996.6 -26.6
2018-Feb-12 07:50N 70°28' W 102°18'0 1.2 996.5 -26.7
2018-Feb-12 07:40N 70°28' W 102°19'0 0.2 996.6 -26.6
2018-Feb-12 06:30N 70°28' W 102°18'0 0.0 997.3 -27.4
2018-Feb-12 06:00N 70°28' W 102°18'0 0.0 997.7 -28.0
2018-Feb-12 05:50N 70°28' W 102°18'0 0.0 997.7 -27.8
2018-Feb-12 05:30N 70°28' W 102°18'0 0.0 998.0 -27.5
2018-Feb-12 05:10N 70°28' W 102°18'0 0.0 998.3 -27.2
2018-Feb-12 05:00N 70°28' W 102°18'0 0.0 998.3 -26.8
2018-Feb-12 04:50N 70°28' W 102°18'0 0.0 998.3 -26.9
2018-Feb-12 04:20N 70°28' W 102°18'0 0.0 998.6 -26.2
2018-Feb-12 04:10N 70°28' W 102°18'0 0.6 998.7 -26.1
2018-Feb-12 03:50N 70°28' W 102°17'0 0.0 998.7 -25.7
2018-Feb-12 03:40N 70°28' W 102°17'0 0.0 998.7 -25.4
2018-Feb-12 03:30N 70°28' W 102°17'0 0.0 998.8 -25.2
2018-Feb-12 03:20N 70°28' W 102°17'0 0.0 999.1 -24.9
2018-Feb-12 03:10N 70°28' W 102°17'0 0.4 999.2 -24.6
2018-Feb-12 02:40N 70°28' W 102°18'0 0.0 999.5 -23.7
2018-Feb-12 02:30N 70°28' W 102°18'0 0.0 999.6 -23.4
2018-Feb-12 02:10N 70°28' W 102°18'0 0.0 999.8 -23.0
2018-Feb-12 02:00N 70°28' W 102°18'1 3.8 999.9 -22.9
2018-Feb-12 01:50N 70°28' W 102°19'1 3.8 1000.1 -22.8
2018-Feb-12 01:40N 70°28' W 102°18'0 0.0 1000.1 -22.7
2018-Feb-12 01:30N 70°28' W 102°18'0 0.0 1000.1 -22.6
2018-Feb-12 01:00N 70°28' W 102°18'1 3.6 1000.3 -22.5
2018-Feb-12 00:50N 70°28' W 102°18'1 1.2 1000.5 -22.2
2018-Feb-12 00:20N 70°28' W 102°18'0 0.0 1000.9 -22.0
2018-Feb-12 00:10N 70°28' W 102°18'0 0.0 1001.0 -21.9
2018-Feb-12 00:00N 70°28' W 102°18'0 0.0 -21.9
2018-Feb-11 23:50N 70°28' W 102°18'0 0.0 1001.3 -22.0
2018-Feb-11 23:20N 70°28' W 102°18'1 4.8 1001.7 -22.0
2018-Feb-11 23:10N 70°28' W 102°16'1 2.4 1002.0 -22.0
2018-Feb-11 22:50N 70°28' W 102°18'0 0.0 1002.2 -22.1
2018-Feb-11 22:40N 70°28' W 102°18'0 0.0 1002.4 -22.1
2018-Feb-11 22:30N 70°28' W 102°18'0 0.0 1002.4 -22.2
2018-Feb-11 22:10N 70°28' W 102°18'0 0.0 1002.7 -22.4
2018-Feb-11 21:40N 70°28' W 102°18'0 0.0 1003.2 -22.7
2018-Feb-11 21:30N 70°28' W 102°18'0 0.0 1003.2 -22.9
2018-Feb-11 21:10N 70°28' W 102°18'0 0.0 1003.6 -23.2
2018-Feb-11 21:00N 70°28' W 102°18'0 1.2 1003.8 -23.2
2018-Feb-11 20:50N 70°28' W 102°19'0 0.2 1004.0 -23.3
2018-Feb-11 20:00N 70°28' W 102°18'1 3.8 1004.7 -23.9
2018-Feb-11 19:50N 70°28' W 102°17'1 1.9 1004.8 -24.0
2018-Feb-11 19:30N 70°28' W 102°18'1 3.8 1005.1 -24.1
2018-Feb-11 19:20N 70°28' W 102°17'0 2.4 1005.3 -24.2
2018-Feb-11 19:10N 70°28' W 102°19'0 0.0 1005.5
2018-Feb-11 18:10N 70°28' W 102°19'1 3.6 1006.5 -24.8
2018-Feb-11 18:00N 70°28' W 102°19'0 0.0 1006.5
2018-Feb-11 17:50N 70°28' W 102°19'0 0.0 1006.9 -25.0
2018-Feb-11 17:40N 70°28' W 102°19'1 3.8 1007.0 -25.1
2018-Feb-11 17:30N 70°28' W 102°18'0 0.0 -25.2
2018-Feb-11 16:30N 70°28' W 102°18'1 2.2 1008.4 -26.3
2018-Feb-11 16:10N 70°28' W 102°17'1 5.1 1008.5 -26.6
2018-Feb-11 16:00N 70°28' W 102°19'1 4.8 1008.7 -26.8
2018-Feb-11 15:50N 70°28' W 102°16'0 0.0 1008.8 -26.9
2018-Feb-11 15:20N 70°28' W 102°16'0 0.6 1009.4 -27.2
2018-Feb-11 15:00N 70°28' W 102°17'0 0.0 1009.6 -27.5
2018-Feb-11 14:50N 70°28' W 102°17'0 0.8 1009.9 -27.7
2018-Feb-11 14:20N 70°28' W 102°18'1 4.3 1010.6 -28.0
2018-Feb-11 14:10N 70°28' W 102°17'0 0.4 1010.6 -28.2
2018-Feb-11 13:40N 70°28' W 102°16'1 4.3 1011.0 -28.4
2018-Feb-11 13:30N 70°28' W 102°17'0 0.0 1011.1 -28.6
2018-Feb-11 13:20N 70°28' W 102°17'0 0.0 1011.3 -28.8
2018-Feb-11 13:10N 70°28' W 102°17'1 2.2 1011.6 -29.0
2018-Feb-11 12:50N 70°28' W 102°19'0 1.2 1012.0 -29.3
2018-Feb-11 12:40N 70°28' W 102°18'0 0.0 1012.1 -29.5
2018-Feb-11 12:30N 70°28' W 102°18'0 0.4 1012.2 -29.7
2018-Feb-11 12:00N 70°28' W 102°17'0 1.2 1012.8 -30.2
2018-Feb-11 11:50N 70°28' W 102°18'0 0.6 1013.1 -30.5
2018-Feb-11 11:30N 70°28' W 102°19'0 0.0 1013.2 -30.7
2018-Feb-11 11:20N 70°28' W 102°19'1 3.0 1013.2
2018-Feb-11 11:00N 70°28' W 102°16'0 0.0 1013.2 -31.0
2018-Feb-11 10:50N 70°28' W 102°16'1 1.7 1013.5 -31.0
2018-Feb-11 10:20N 70°28' W 102°18'0 0.0 1013.3 -31.1
2018-Feb-11 10:10N 70°28' W 102°18'0 0.0 1013.5 -31.0
2018-Feb-11 09:50N 70°28' W 102°18'0 0.0 1013.5 -30.8
2018-Feb-11 09:40N 70°28' W 102°18'0 0.0 -30.7
2018-Feb-11 08:40N 70°28' W 102°18'0 0.0 1013.7 -30.4
2018-Feb-11 08:30N 70°28' W 102°18'0 0.0 1013.7 -30.3
2018-Feb-11 08:10N 70°28' W 102°18'0 0.0 1013.6 -30.3
2018-Feb-11 08:00N 70°28' W 102°18'0 0.0 1013.7 -30.4
2018-Feb-11 07:00N 70°28' W 102°18'0 0.0 1013.7 -30.1
2018-Feb-11 06:20N 70°28' W 102°18'0 0.0 1014.0 -30.2
2018-Feb-11 05:40N 70°28' W 102°18'0 0.0 1014.0 -29.8
2018-Feb-11 05:30N 70°28' W 102°18'0 0.0 1014.0 -29.8
2018-Feb-11 05:20N 70°28' W 102°18'0 0.0 1014.2 -29.9
2018-Feb-11 04:40N 70°28' W 102°18'0 0.0 1014.3 -30.2
2018-Feb-11 04:30N 70°28' W 102°18'1 2.2 1014.3 -30.3
2018-Feb-11 04:10N 70°28' W 102°19'1 3.8 1014.4 -30.5
2018-Feb-11 04:00N 70°28' W 102°19'0 0.0 1014.3 -30.4
2018-Feb-11 03:50N 70°28' W 102°19'0 1.2 1014.3 -30.4
2018-Feb-11 03:40N 70°28' W 102°18'0 0.3 1014.3 -30.3
2018-Feb-11 03:00N 70°28' W 102°19'0 0.0 1014.3 -30.1
2018-Feb-11 02:50N 70°28' W 102°19'   1014.3 -30.0

Dump ship's entire track history